Observation data for Tahoka on 09/11/2017      Previous  Date  Next       Current Mesonet Observations  Soil Data  Daily Summary Page  Observations in Plain Language
KTAS 110500Z 09004KT 15/08 A3023 RMK A01 T01540082  RH  062%=      5-min Rain = 0
KTAS 110501Z 10004KT 15/08 A3023 RMK A01 T01540082  RH  062%=      5-min Rain = 0
KTAS 110502Z 09004KT 15/08 A3023 RMK A01 T01540082  RH  062%=      5-min Rain = 0
KTAS 110503Z 10004KT 15/08 A3023 RMK A01 T01540082  RH  062%=      5-min Rain = 0
KTAS 110504Z 10005KT 15/08 A3023 RMK A01 T01540082  RH  062%=      5-min Rain = 0
KTAS 110505Z 10004KT 15/08 A3023 RMK A01 T01540081  RH  062%=      5-min Rain = 0
KTAS 110506Z 09004KT 16/08 A3023 RMK A01 T01550081  RH  062%=      5-min Rain = 0
KTAS 110507Z 07004KT 16/08 A3023 RMK A01 T01560082  RH  061%=      5-min Rain = 0
KTAS 110508Z 08004KT 16/08 A3023 RMK A01 T01570083  RH  061%=      5-min Rain = 0
KTAS 110509Z 08003KT 16/08 A3023 RMK A01 T01560083  RH  062%=      5-min Rain = 0
KTAS 110510Z 08003KT 16/08 A3023 RMK A01 T01550082  RH  062%=      5-min Rain = 0
KTAS 110511Z 08003KT 16/08 A3023 RMK A01 T01550082  RH  062%=      5-min Rain = 0
KTAS 110512Z 08003KT 16/08 A3023 RMK A01 T01550081  RH  062%=      5-min Rain = 0
KTAS 110513Z 08003KT 15/08 A3023 RMK A01 T01540081  RH  062%=      5-min Rain = 0
KTAS 110514Z 09003KT 15/08 A3023 RMK A01 T01540081  RH  062%=      5-min Rain = 0
KTAS 110515Z 09003KT 15/08 A3023 RMK A01 T01530082  RH  062%=      5-min Rain = 0
KTAS 110516Z 09004KT 15/08 A3023 RMK A01 T01520081  RH  062%=      5-min Rain = 0
KTAS 110517Z 09004KT 15/08 A3023 RMK A01 T01520081  RH  063%=      5-min Rain = 0
KTAS 110518Z 09004KT 15/08 A3023 RMK A01 T01510082  RH  063%=      5-min Rain = 0
KTAS 110519Z 09004KT 15/08 A3023 RMK A01 T01510082  RH  064%=      5-min Rain = 0
KTAS 110520Z 09004KT 15/08 A3023 RMK A01 T01510083  RH  064%=      5-min Rain = 0
KTAS 110521Z 09004KT 15/08 A3023 RMK A01 T01510083  RH  064%=      5-min Rain = 0
KTAS 110522Z 09004KT 15/08 A3023 RMK A01 T01510084  RH  064%=      5-min Rain = 0
KTAS 110523Z 09004KT 15/08 A3023 RMK A01 T01500084  RH  064%=      5-min Rain = 0
KTAS 110524Z 09004KT 15/08 A3023 RMK A01 T01500084  RH  064%=      5-min Rain = 0
KTAS 110525Z 09004KT 15/08 A3023 RMK A01 T01500084  RH  064%=      5-min Rain = 0
KTAS 110526Z 08004KT 15/08 A3023 RMK A01 T01500084  RH  064%=      5-min Rain = 0
KTAS 110527Z 09003KT 15/08 A3023 RMK A01 T01500084  RH  065%=      5-min Rain = 0
KTAS 110528Z 09003KT 15/08 A3023 RMK A01 T01500084  RH  065%=      5-min Rain = 0
KTAS 110529Z 08004KT 15/08 A3023 RMK A01 T01490084  RH  065%=      5-min Rain = 0
KTAS 110530Z 08004KT 15/08 A3023 RMK A01 T01490084  RH  065%=      5-min Rain = 0
KTAS 110531Z 08004KT 15/08 A3023 RMK A01 T01490083  RH  065%=      5-min Rain = 0
KTAS 110532Z 08004KT 15/08 A3023 RMK A01 T01500083  RH  064%=      5-min Rain = 0
KTAS 110533Z 08004KT 15/08 A3023 RMK A01 T01490082  RH  064%=      5-min Rain = 0
KTAS 110534Z 08003KT 15/08 A3023 RMK A01 T01480082  RH  065%=      5-min Rain = 0
KTAS 110535Z 08003KT 15/08 A3023 RMK A01 T01470083  RH  066%=      5-min Rain = 0
KTAS 110536Z 08003KT 15/08 A3023 RMK A01 T01460084  RH  066%=      5-min Rain = 0
KTAS 110537Z 09003KT 15/08 A3023 RMK A01 T01460084  RH  066%=      5-min Rain = 0
KTAS 110538Z 09003KT 15/08 A3023 RMK A01 T01460084  RH  066%=      5-min Rain = 0
KTAS 110539Z 09003KT 15/08 A3023 RMK A01 T01460083  RH  066%=      5-min Rain = 0
KTAS 110540Z 09003KT 15/08 A3023 RMK A01 T01470083  RH  066%=      5-min Rain = 0
KTAS 110541Z 09003KT 15/08 A3023 RMK A01 T01470083  RH  065%=      5-min Rain = 0
KTAS 110542Z 08003KT 15/08 A3023 RMK A01 T01470083  RH  065%=      5-min Rain = 0
KTAS 110543Z 08003KT 15/08 A3023 RMK A01 T01470083  RH  065%=      5-min Rain = 0
KTAS 110544Z 08003KT 15/08 A3023 RMK A01 T01470084  RH  066%=      5-min Rain = 0
KTAS 110545Z 08003KT 15/09 A3023 RMK A01 T01470085  RH  066%=      5-min Rain = 0
KTAS 110546Z 08003KT 15/08 A3023 RMK A01 T01470084  RH  066%=      5-min Rain = 0
KTAS 110547Z 08003KT 15/09 A3023 RMK A01 T01470085  RH  066%=      5-min Rain = 0
KTAS 110548Z 07003KT 15/09 A3023 RMK A01 T01460085  RH  066%=      5-min Rain = 0
KTAS 110549Z 07003KT 15/09 A3023 RMK A01 T01460085  RH  067%=      5-min Rain = 0
KTAS 110550Z 07003KT 15/09 A3023 RMK A01 T01460086  RH  067%=      5-min Rain = 0
KTAS 110551Z 07004KT 15/09 A3023 RMK A01 T01450085  RH  067%=      5-min Rain = 0
KTAS 110552Z 08004KT 14/09 A3023 RMK A01 T01440085  RH  067%=      5-min Rain = 0
KTAS 110553Z 08004KT 14/08 A3023 RMK A01 T01430084  RH  068%=      5-min Rain = 0
KTAS 110554Z 08004KT 14/08 A3023 RMK A01 T01430084  RH  068%=      5-min Rain = 0
KTAS 110555Z 08004KT 14/08 A3023 RMK A01 T01430083  RH  067%=      5-min Rain = 0
KTAS 110556Z 08004KT 14/08 A3023 RMK A01 T01430083  RH  067%=      5-min Rain = 0
KTAS 110557Z 09004KT 14/08 A3023 RMK A01 T01440084  RH  067%=      5-min Rain = 0
KTAS 110558Z 09003KT 14/08 A3023 RMK A01 T01440084  RH  067%=      5-min Rain = 0
KTAS 110559Z 09003KT 14/08 A3023 RMK A01 T01440084  RH  067%=      5-min Rain = 0
KTAS 110600Z 09003KT 14/08 A3023 RMK A01 T01440083  RH  067%=      5-min Rain = 0
KTAS 110601Z 09003KT 14/08 A3023 RMK A01 T01440083  RH  067%=      5-min Rain = 0
KTAS 110602Z 09003KT 14/08 A3023 RMK A01 T01440082  RH  066%=      5-min Rain = 0
KTAS 110603Z 09003KT 14/08 A3023 RMK A01 T01430082  RH  067%=      5-min Rain = 0
KTAS 110604Z 09003KT 14/08 A3023 RMK A01 T01430082  RH  067%=      5-min Rain = 0
KTAS 110605Z 09003KT 14/08 A3023 RMK A01 T01430082  RH  067%=      5-min Rain = 0
KTAS 110606Z 10003KT 14/08 A3023 RMK A01 T01420082  RH  067%=      5-min Rain = 0
KTAS 110607Z 10003KT 14/08 A3023 RMK A01 T01420082  RH  067%=      5-min Rain = 0
KTAS 110608Z 10003KT 14/08 A3023 RMK A01 T01420083  RH  068%=      5-min Rain = 0
KTAS 110609Z 10003KT 14/08 A3023 RMK A01 T01410083  RH  068%=      5-min Rain = 0
KTAS 110610Z 10003KT 14/08 A3023 RMK A01 T01410083  RH  068%=      5-min Rain = 0
KTAS 110611Z 09003KT 14/08 A3023 RMK A01 T01410083  RH  068%=      5-min Rain = 0
KTAS 110612Z 10003KT 14/08 A3023 RMK A01 T01410083  RH  068%=      5-min Rain = 0
KTAS 110613Z 10003KT 14/08 A3023 RMK A01 T01420083  RH  068%=      5-min Rain = 0
KTAS 110614Z 10003KT 14/08 A3023 RMK A01 T01420083  RH  068%=      5-min Rain = 0
KTAS 110615Z 10003KT 14/08 A3023 RMK A01 T01420083  RH  067%=      5-min Rain = 0
KTAS 110616Z 10003KT 14/08 A3023 RMK A01 T01430083  RH  067%=      5-min Rain = 0
KTAS 110617Z 10003KT 14/08 A3023 RMK A01 T01440083  RH  067%=      5-min Rain = 0
KTAS 110618Z 11003KT 15/08 A3023 RMK A01 T01450083  RH  066%=      5-min Rain = 0
KTAS 110619Z 11003KT 15/08 A3023 RMK A01 T01460083  RH  066%=      5-min Rain = 0
KTAS 110620Z 11002KT 15/08 A3023 RMK A01 T01460084  RH  066%=      5-min Rain = 0
KTAS 110621Z 11002KT 15/08 A3023 RMK A01 T01460084  RH  066%=      5-min Rain = 0
KTAS 110622Z 11002KT 14/08 A3023 RMK A01 T01440084  RH  067%=      5-min Rain = 0
KTAS 110623Z 12002KT 14/09 A3023 RMK A01 T01420085  RH  068%=      5-min Rain = 0
KTAS 110624Z 12002KT 14/08 A3023 RMK A01 T01400084  RH  069%=      5-min Rain = 0
KTAS 110625Z 12002KT 14/08 A3023 RMK A01 T01390083  RH  069%=      5-min Rain = 0
KTAS 110626Z 12002KT 14/08 A3023 RMK A01 T01390082  RH  069%=      5-min Rain = 0
KTAS 110627Z 13002KT 14/08 A3023 RMK A01 T01390082  RH  068%=      5-min Rain = 0
KTAS 110628Z 13002KT 14/08 A3023 RMK A01 T01400081  RH  068%=      5-min Rain = 0
KTAS 110629Z 14002KT 14/08 A3023 RMK A01 T01400081  RH  068%=      5-min Rain = 0
KTAS 110630Z 13002KT 14/08 A3023 RMK A01 T01400081  RH  067%=      5-min Rain = 0
KTAS 110631Z 12003KT 14/08 A3023 RMK A01 T01390080  RH  067%=      5-min Rain = 0
KTAS 110632Z 11003KT 14/08 A3023 RMK A01 T01390081  RH  068%=      5-min Rain = 0
KTAS 110633Z 11003KT 14/08 A3023 RMK A01 T01390081  RH  068%=      5-min Rain = 0
KTAS 110634Z 11003KT 14/08 A3023 RMK A01 T01390081  RH  068%=      5-min Rain = 0
KTAS 110635Z 11003KT 14/08 A3023 RMK A01 T01390080  RH  068%=      5-min Rain = 0
KTAS 110636Z 11003KT 14/08 A3023 RMK A01 T01390080  RH  067%=      5-min Rain = 0
KTAS 110637Z 11003KT 14/08 A3023 RMK A01 T01390079  RH  067%=      5-min Rain = 0
KTAS 110638Z 11003KT 14/08 A3023 RMK A01 T01380079  RH  067%=      5-min Rain = 0
KTAS 110639Z 11003KT 14/08 A3023 RMK A01 T01380078  RH  067%=      5-min Rain = 0
KTAS 110640Z 11003KT 14/08 A3023 RMK A01 T01380078  RH  067%=      5-min Rain = 0
KTAS 110641Z 11003KT 14/08 A3023 RMK A01 T01370078  RH  068%=      5-min Rain = 0
KTAS 110642Z 11003KT 14/08 A3023 RMK A01 T01360078  RH  068%=      5-min Rain = 0
KTAS 110643Z 11003KT 14/08 A3023 RMK A01 T01360078  RH  068%=      5-min Rain = 0
KTAS 110644Z 11003KT 14/08 A3022 RMK A01 T01360079  RH  068%=      5-min Rain = 0
KTAS 110645Z 11004KT 14/08 A3022 RMK A01 T01350079  RH  069%=      5-min Rain = 0
KTAS 110646Z 11003KT 14/08 A3022 RMK A01 T01350079  RH  069%=      5-min Rain = 0
KTAS 110647Z 11003KT 14/08 A3022 RMK A01 T01350079  RH  069%=      5-min Rain = 0
KTAS 110648Z 11003KT 13/08 A3022 RMK A01 T01340078  RH  069%=      5-min Rain = 0
KTAS 110649Z 11003KT 13/08 A3022 RMK A01 T01340079  RH  069%=      5-min Rain = 0
KTAS 110650Z 11003KT 13/08 A3022 RMK A01 T01330079  RH  070%=      5-min Rain = 0
KTAS 110651Z 11003KT 13/08 A3022 RMK A01 T01330080  RH  070%=      5-min Rain = 0
KTAS 110652Z 11003KT 13/08 A3022 RMK A01 T01330080  RH  070%=      5-min Rain = 0
KTAS 110653Z 11003KT 13/08 A3022 RMK A01 T01330080  RH  070%=      5-min Rain = 0
KTAS 110654Z 10003KT 13/08 A3022 RMK A01 T01330080  RH  070%=      5-min Rain = 0
KTAS 110655Z 10003KT 13/08 A3022 RMK A01 T01330080  RH  070%=      5-min Rain = 0
KTAS 110656Z 10003KT 13/08 A3022 RMK A01 T01340081  RH  070%=      5-min Rain = 0
KTAS 110657Z 10003KT 14/08 A3022 RMK A01 T01350082  RH  070%=      5-min Rain = 0
KTAS 110658Z 10002KT 14/08 A3022 RMK A01 T01360083  RH  070%=      5-min Rain = 0
KTAS 110659Z 10002KT 14/08 A3022 RMK A01 T01350082  RH  070%=      5-min Rain = 0
KTAS 110700Z 10003KT 14/08 A3022 RMK A01 T01350082  RH  070%=      5-min Rain = 0
KTAS 110701Z 10003KT 14/08 A3022 RMK A01 T01350082  RH  071%=      5-min Rain = 0
KTAS 110702Z 10003KT 13/08 A3022 RMK A01 T01340083  RH  071%=      5-min Rain = 0
KTAS 110703Z 10003KT 13/08 A3022 RMK A01 T01340083  RH  071%=      5-min Rain = 0
KTAS 110704Z 10003KT 13/08 A3022 RMK A01 T01340082  RH  071%=      5-min Rain = 0
KTAS 110705Z 11003KT 13/08 A3022 RMK A01 T01340081  RH  071%=      5-min Rain = 0
KTAS 110706Z 10003KT 13/08 A3022 RMK A01 T01340081  RH  071%=      5-min Rain = 0
KTAS 110707Z 10003KT 13/08 A3022 RMK A01 T01340082  RH  071%=      5-min Rain = 0
KTAS 110708Z 10004KT 14/08 A3022 RMK A01 T01350082  RH  070%=      5-min Rain = 0
KTAS 110709Z 10004KT 14/08 A3022 RMK A01 T01360082  RH  070%=      5-min Rain = 0
KTAS 110710Z 10004KT 14/08 A3022 RMK A01 T01370082  RH  070%=      5-min Rain = 0
KTAS 110711Z 10004KT 14/08 A3022 RMK A01 T01370082  RH  069%=      5-min Rain = 0
KTAS 110712Z 10004KT 14/08 A3022 RMK A01 T01380082  RH  069%=      5-min Rain = 0
KTAS 110713Z 10004KT 14/08 A3022 RMK A01 T01380082  RH  069%=      5-min Rain = 0
KTAS 110714Z 10004KT 14/08 A3022 RMK A01 T01390082  RH  068%=      5-min Rain = 0
KTAS 110715Z 10004KT 14/08 A3022 RMK A01 T01390082  RH  068%=      5-min Rain = 0
KTAS 110716Z 10004KT 14/08 A3022 RMK A01 T01390082  RH  069%=      5-min Rain = 0
KTAS 110717Z 10004KT 14/08 A3022 RMK A01 T01390082  RH  069%=      5-min Rain = 0
KTAS 110718Z 10004KT 14/08 A3022 RMK A01 T01390082  RH  068%=      5-min Rain = 0
KTAS 110719Z 10004KT 14/08 A3022 RMK A01 T01390082  RH  069%=      5-min Rain = 0
KTAS 110720Z 10004KT 14/08 A3022 RMK A01 T01390083  RH  069%=      5-min Rain = 0
KTAS 110721Z 10004KT 14/08 A3022 RMK A01 T01390083  RH  069%=      5-min Rain = 0
KTAS 110722Z 10004KT 14/08 A3022 RMK A01 T01390083  RH  069%=      5-min Rain = 0
KTAS 110723Z 10004KT 14/08 A3022 RMK A01 T01390084  RH  069%=      5-min Rain = 0
KTAS 110724Z 10004KT 14/08 A3022 RMK A01 T01390084  RH  069%=      5-min Rain = 0
KTAS 110725Z 10004KT 14/08 A3022 RMK A01 T01390084  RH  069%=      5-min Rain = 0
KTAS 110726Z 10004KT 14/08 A3022 RMK A01 T01390084  RH  069%=      5-min Rain = 0
KTAS 110727Z 10005KT 14/08 A3022 RMK A01 T01390084  RH  069%=      5-min Rain = 0
KTAS 110728Z 10005KT 14/08 A3022 RMK A01 T01390084  RH  069%=      5-min Rain = 0
KTAS 110729Z 10005KT 14/08 A3022 RMK A01 T01390083  RH  069%=      5-min Rain = 0
KTAS 110730Z 10005KT 14/08 A3022 RMK A01 T01390083  RH  069%=      5-min Rain = 0
KTAS 110731Z 10005KT 14/08 A3022 RMK A01 T01390082  RH  069%=      5-min Rain = 0
KTAS 110732Z 10005KT 14/08 A3022 RMK A01 T01390082  RH  068%=      5-min Rain = 0
KTAS 110733Z 10004KT 14/08 A3022 RMK A01 T01390082  RH  068%=      5-min Rain = 0
KTAS 110734Z 10005KT 14/08 A3022 RMK A01 T01390082  RH  068%=      5-min Rain = 0
KTAS 110735Z 10005KT 14/08 A3022 RMK A01 T01390081  RH  068%=      5-min Rain = 0
KTAS 110736Z 10005KT 14/08 A3022 RMK A01 T01380081  RH  068%=      5-min Rain = 0
KTAS 110737Z 10005KT 14/08 A3022 RMK A01 T01380081  RH  068%=      5-min Rain = 0
KTAS 110738Z 10005KT 14/08 A3022 RMK A01 T01390081  RH  068%=      5-min Rain = 0
KTAS 110739Z 10005KT 14/08 A3022 RMK A01 T01390082  RH  068%=      5-min Rain = 0
KTAS 110740Z 10005KT 14/08 A3022 RMK A01 T01390082  RH  068%=      5-min Rain = 0
KTAS 110741Z 10005KT 14/08 A3022 RMK A01 T01400082  RH  068%=      5-min Rain = 0
KTAS 110742Z 10005KT 14/08 A3022 RMK A01 T01400082  RH  068%=      5-min Rain = 0
KTAS 110743Z 10005KT 14/08 A3022 RMK A01 T01400082  RH  068%=      5-min Rain = 0
KTAS 110744Z 10005KT 14/08 A3022 RMK A01 T01400082  RH  068%=      5-min Rain = 0
KTAS 110745Z 10005KT 14/08 A3022 RMK A01 T01400082  RH  068%=      5-min Rain = 0
KTAS 110746Z 10005KT 14/08 A3022 RMK A01 T01390081  RH  068%=      5-min Rain = 0
KTAS 110747Z 10005KT 14/08 A3022 RMK A01 T01390081  RH  068%=      5-min Rain = 0
KTAS 110748Z 10005KT 14/08 A3022 RMK A01 T01380081  RH  068%=      5-min Rain = 0
KTAS 110749Z 10005KT 14/08 A3022 RMK A01 T01380081  RH  068%=      5-min Rain = 0
KTAS 110750Z 10005KT 14/08 A3022 RMK A01 T01380081  RH  068%=      5-min Rain = 0
KTAS 110751Z 10004KT 14/08 A3022 RMK A01 T01380081  RH  068%=      5-min Rain = 0
KTAS 110752Z 10004KT 14/08 A3022 RMK A01 T01370081  RH  069%=      5-min Rain = 0
KTAS 110753Z 10004KT 14/08 A3022 RMK A01 T01370081  RH  069%=      5-min Rain = 0
KTAS 110754Z 10004KT 14/08 A3022 RMK A01 T01380081  RH  069%=      5-min Rain = 0
KTAS 110755Z 10004KT 14/08 A3022 RMK A01 T01380081  RH  069%=      5-min Rain = 0
KTAS 110756Z 10004KT 14/08 A3022 RMK A01 T01380081  RH  069%=      5-min Rain = 0
KTAS 110757Z 10004KT 14/08 A3022 RMK A01 T01380081  RH  069%=      5-min Rain = 0
KTAS 110758Z 10004KT 14/08 A3022 RMK A01 T01380081  RH  069%=      5-min Rain = 0
KTAS 110759Z 10004KT 14/08 A3022 RMK A01 T01380081  RH  069%=      5-min Rain = 0
KTAS 110800Z 10004KT 14/08 A3022 RMK A01 T01370081  RH  069%=      5-min Rain = 0
KTAS 110801Z 10004KT 14/08 A3022 RMK A01 T01370080  RH  069%=      5-min Rain = 0
KTAS 110802Z 10004KT 14/08 A3022 RMK A01 T01370080  RH  069%=      5-min Rain = 0
KTAS 110803Z 10004KT 14/08 A3022 RMK A01 T01360080  RH  069%=      5-min Rain = 0
KTAS 110804Z 10004KT 14/08 A3022 RMK A01 T01360080  RH  069%=      5-min Rain = 0
KTAS 110805Z 10004KT 14/08 A3022 RMK A01 T01360080  RH  069%=      5-min Rain = 0
KTAS 110806Z 10004KT 14/08 A3022 RMK A01 T01350080  RH  069%=      5-min Rain = 0
KTAS 110807Z 10004KT 14/08 A3022 RMK A01 T01350080  RH  070%=      5-min Rain = 0
KTAS 110808Z 10004KT 13/08 A3022 RMK A01 T01340080  RH  070%=      5-min Rain = 0
KTAS 110809Z 10004KT 13/08 A3022 RMK A01 T01340080  RH  070%=      5-min Rain = 0
KTAS 110810Z 10004KT 13/08 A3022 RMK A01 T01340080  RH  070%=      5-min Rain = 0
KTAS 110811Z 10004KT 13/08 A3022 RMK A01 T01330080  RH  070%=      5-min Rain = 0
KTAS 110812Z 10004KT 13/08 A3022 RMK A01 T01330080  RH  070%=      5-min Rain = 0
KTAS 110813Z 10004KT 13/08 A3022 RMK A01 T01330079  RH  070%=      5-min Rain = 0
KTAS 110814Z 10004KT 13/08 A3022 RMK A01 T01330078  RH  070%=      5-min Rain = 0
KTAS 110815Z 10004KT 13/08 A3022 RMK A01 T01320078  RH  070%=      5-min Rain = 0
KTAS 110816Z 10004KT 13/08 A3022 RMK A01 T01320078  RH  070%=      5-min Rain = 0
KTAS 110817Z 10004KT 13/08 A3022 RMK A01 T01310078  RH  070%=      5-min Rain = 0
KTAS 110818Z 10004KT 13/08 A3022 RMK A01 T01310079  RH  071%=      5-min Rain = 0
KTAS 110819Z 10004KT 13/08 A3022 RMK A01 T01300080  RH  071%=      5-min Rain = 0
KTAS 110820Z 10004KT 13/08 A3022 RMK A01 T01300080  RH  072%=      5-min Rain = 0
KTAS 110821Z 11004KT 13/08 A3022 RMK A01 T01310081  RH  072%=      5-min Rain = 0
KTAS 110822Z 11004KT 13/08 A3022 RMK A01 T01310080  RH  071%=      5-min Rain = 0
KTAS 110823Z 11004KT 13/08 A3022 RMK A01 T01310081  RH  071%=      5-min Rain = 0
KTAS 110824Z 11004KT 13/08 A3022 RMK A01 T01320081  RH  071%=      5-min Rain = 0
KTAS 110825Z 11004KT 13/08 A3022 RMK A01 T01320081  RH  071%=      5-min Rain = 0
KTAS 110826Z 11004KT 13/08 A3022 RMK A01 T01320080  RH  071%=      5-min Rain = 0
KTAS 110827Z 11004KT 13/08 A3022 RMK A01 T01320080  RH  071%=      5-min Rain = 0
KTAS 110828Z 11004KT 13/08 A3022 RMK A01 T01320081  RH  071%=      5-min Rain = 0
KTAS 110829Z 10004KT 13/08 A3022 RMK A01 T01320080  RH  071%=      5-min Rain = 0
KTAS 110830Z 10004KT 13/08 A3022 RMK A01 T01320080  RH  071%=      5-min Rain = 0
KTAS 110831Z 10004KT 13/08 A3022 RMK A01 T01320081  RH  071%=      5-min Rain = 0
KTAS 110832Z 10004KT 13/08 A3022 RMK A01 T01320081  RH  071%=      5-min Rain = 0
KTAS 110833Z 10004KT 13/08 A3022 RMK A01 T01320081  RH  071%=      5-min Rain = 0
KTAS 110834Z 10004KT 13/08 A3022 RMK A01 T01320080  RH  071%=      5-min Rain = 0
KTAS 110835Z 10004KT 13/08 A3022 RMK A01 T01320080  RH  071%=      5-min Rain = 0
KTAS 110836Z 10004KT 13/08 A3022 RMK A01 T01310080  RH  071%=      5-min Rain = 0
KTAS 110837Z 10004KT 13/08 A3022 RMK A01 T01310080  RH  071%=      5-min Rain = 0
KTAS 110838Z 10004KT 13/08 A3022 RMK A01 T01310080  RH  071%=      5-min Rain = 0
KTAS 110839Z 09004KT 13/08 A3022 RMK A01 T01300080  RH  071%=      5-min Rain = 0
KTAS 110840Z 09003KT 13/08 A3022 RMK A01 T01300080  RH  072%=      5-min Rain = 0
KTAS 110841Z 10003KT 13/08 A3022 RMK A01 T01290079  RH  072%=      5-min Rain = 0
KTAS 110842Z 10003KT 13/08 A3022 RMK A01 T01280079  RH  072%=      5-min Rain = 0
KTAS 110843Z 10003KT 13/08 A3022 RMK A01 T01270079  RH  072%=      5-min Rain = 0
KTAS 110844Z 10003KT 13/08 A3022 RMK A01 T01260079  RH  073%=      5-min Rain = 0
KTAS 110845Z 10003KT 12/08 A3022 RMK A01 T01240079  RH  074%=      5-min Rain = 0
KTAS 110846Z 10003KT 12/08 A3022 RMK A01 T01240080  RH  075%=      5-min Rain = 0
KTAS 110847Z 10003KT 12/08 A3022 RMK A01 T01240082  RH  075%=      5-min Rain = 0
KTAS 110848Z 10003KT 12/08 A3022 RMK A01 T01240083  RH  076%=      5-min Rain = 0
KTAS 110849Z 10003KT 13/09 A3022 RMK A01 T01250085  RH  076%=      5-min Rain = 0
KTAS 110850Z 10003KT 13/09 A3022 RMK A01 T01250085  RH  077%=      5-min Rain = 0
KTAS 110851Z 10003KT 12/08 A3022 RMK A01 T01240083  RH  076%=      5-min Rain = 0
KTAS 110852Z 10003KT 12/08 A3022 RMK A01 T01240083  RH  076%=      5-min Rain = 0
KTAS 110853Z 10003KT 12/08 A3022 RMK A01 T01230083  RH  076%=      5-min Rain = 0
KTAS 110854Z 10003KT 12/09 A3022 RMK A01 T01240085  RH  077%=      5-min Rain = 0
KTAS 110855Z 11003KT 12/09 A3022 RMK A01 T01240085  RH  077%=      5-min Rain = 0
KTAS 110856Z 11003KT 12/09 A3022 RMK A01 T01240085  RH  077%=      5-min Rain = 0
KTAS 110857Z 11003KT 12/09 A3022 RMK A01 T01230085  RH  077%=      5-min Rain = 0
KTAS 110858Z 11003KT 12/08 A3022 RMK A01 T01230084  RH  077%=      5-min Rain = 0
KTAS 110859Z 11004KT 12/08 A3022 RMK A01 T01230084  RH  077%=      5-min Rain = 0
KTAS 110900Z 11004KT 12/08 A3022 RMK A01 T01220084  RH  077%=      5-min Rain = 0
KTAS 110901Z 11004KT 12/08 A3022 RMK A01 T01220083  RH  077%=      5-min Rain = 0
KTAS 110902Z 11004KT 12/08 A3022 RMK A01 T01230083  RH  077%=      5-min Rain = 0
KTAS 110903Z 11004KT 12/08 A3022 RMK A01 T01240083  RH  076%=      5-min Rain = 0
KTAS 110904Z 11004KT 12/08 A3022 RMK A01 T01240083  RH  076%=      5-min Rain = 0
KTAS 110905Z 11004KT 13/08 A3022 RMK A01 T01250083  RH  076%=      5-min Rain = 0
KTAS 110906Z 11004KT 13/08 A3022 RMK A01 T01250082  RH  075%=      5-min Rain = 0
KTAS 110907Z 11004KT 13/08 A3022 RMK A01 T01250082  RH  075%=      5-min Rain = 0
KTAS 110908Z 11004KT 12/08 A3022 RMK A01 T01240081  RH  075%=      5-min Rain = 0
KTAS 110909Z 11003KT 12/08 A3022 RMK A01 T01240081  RH  075%=      5-min Rain = 0
KTAS 110910Z 11004KT 12/08 A3022 RMK A01 T01240080  RH  075%=      5-min Rain = 0
KTAS 110911Z 11004KT 12/08 A3022 RMK A01 T01230080  RH  075%=      5-min Rain = 0
KTAS 110912Z 11004KT 12/08 A3022 RMK A01 T01230079  RH  075%=      5-min Rain = 0
KTAS 110913Z 11004KT 12/08 A3022 RMK A01 T01220079  RH  075%=      5-min Rain = 0
KTAS 110914Z 12003KT 12/08 A3022 RMK A01 T01220079  RH  075%=      5-min Rain = 0
KTAS 110915Z 11003KT 12/08 A3022 RMK A01 T01220080  RH  076%=      5-min Rain = 0
KTAS 110916Z 11003KT 12/08 A3022 RMK A01 T01210080  RH  076%=      5-min Rain = 0
KTAS 110917Z 12004KT 12/08 A3022 RMK A01 T01210080  RH  076%=      5-min Rain = 0
KTAS 110918Z 11004KT 12/08 A3022 RMK A01 T01200080  RH  076%=      5-min Rain = 0
KTAS 110919Z 11004KT 12/08 A3022 RMK A01 T01200080  RH  076%=      5-min Rain = 0
KTAS 110920Z 11004KT 12/08 A3022 RMK A01 T01200080  RH  076%=      5-min Rain = 0
KTAS 110921Z 11004KT 12/08 A3021 RMK A01 T01200080  RH  077%=      5-min Rain = 0
KTAS 110922Z 11004KT 12/08 A3021 RMK A01 T01200080  RH  077%=      5-min Rain = 0
KTAS 110923Z 11004KT 12/08 A3021 RMK A01 T01200081  RH  077%=      5-min Rain = 0
KTAS 110924Z 12004KT 12/08 A3021 RMK A01 T01200081  RH  077%=      5-min Rain = 0
KTAS 110925Z 12004KT 12/08 A3021 RMK A01 T01210082  RH  077%=      5-min Rain = 0
KTAS 110926Z 12004KT 12/08 A3021 RMK A01 T01220082  RH  077%=      5-min Rain = 0
KTAS 110927Z 11004KT 12/08 A3021 RMK A01 T01230083  RH  076%=      5-min Rain = 0
KTAS 110928Z 11004KT 12/08 A3021 RMK A01 T01240082  RH  076%=      5-min Rain = 0
KTAS 110929Z 11004KT 13/08 A3021 RMK A01 T01250082  RH  075%=      5-min Rain = 0
KTAS 110930Z 12004KT 13/08 A3021 RMK A01 T01260082  RH  075%=      5-min Rain = 0
KTAS 110931Z 12004KT 13/08 A3021 RMK A01 T01260082  RH  074%=      5-min Rain = 0
KTAS 110932Z 12004KT 13/08 A3021 RMK A01 T01270082  RH  074%=      5-min Rain = 0
KTAS 110933Z 12004KT 13/08 A3021 RMK A01 T01270082  RH  074%=      5-min Rain = 0
KTAS 110934Z 12004KT 13/08 A3021 RMK A01 T01270081  RH  074%=      5-min Rain = 0
KTAS 110935Z 12004KT 13/08 A3021 RMK A01 T01260080  RH  074%=      5-min Rain = 0
KTAS 110936Z 12004KT 13/08 A3021 RMK A01 T01260079  RH  073%=      5-min Rain = 0
KTAS 110937Z 13004KT 13/08 A3021 RMK A01 T01250079  RH  074%=      5-min Rain = 0
KTAS 110938Z 13003KT 12/08 A3021 RMK A01 T01240079  RH  074%=      5-min Rain = 0
KTAS 110939Z 13003KT 12/08 A3021 RMK A01 T01240080  RH  074%=      5-min Rain = 0
KTAS 110940Z 13003KT 12/08 A3021 RMK A01 T01230078  RH  074%=      5-min Rain = 0
KTAS 110941Z 14002KT 12/08 A3021 RMK A01 T01200076  RH  074%=      5-min Rain = 0
KTAS 110942Z 13002KT 12/08 A3021 RMK A01 T01180076  RH  076%=      5-min Rain = 0
KTAS 110943Z 13003KT 12/08 A3021 RMK A01 T01160075  RH  076%=      5-min Rain = 0
KTAS 110944Z 13003KT 12/08 A3021 RMK A01 T01150075  RH  077%=      5-min Rain = 0
KTAS 110945Z 13003KT 12/08 A3021 RMK A01 T01150077  RH  077%=      5-min Rain = 0
KTAS 110946Z 13003KT 12/08 A3021 RMK A01 T01150078  RH  078%=      5-min Rain = 0
KTAS 110947Z 12003KT 12/08 A3021 RMK A01 T01150078  RH  078%=      5-min Rain = 0
KTAS 110948Z 13003KT 12/08 A3021 RMK A01 T01160079  RH  078%=      5-min Rain = 0
KTAS 110949Z 13003KT 12/08 A3021 RMK A01 T01160080  RH  078%=      5-min Rain = 0
KTAS 110950Z 13003KT 12/08 A3021 RMK A01 T01160080  RH  078%=      5-min Rain = 0
KTAS 110951Z 13003KT 12/08 A3021 RMK A01 T01160080  RH  078%=      5-min Rain = 0
KTAS 110952Z 13003KT 12/08 A3021 RMK A01 T01170080  RH  078%=      5-min Rain = 0
KTAS 110953Z 13003KT 12/08 A3021 RMK A01 T01170080  RH  078%=      5-min Rain = 0
KTAS 110954Z 13003KT 12/08 A3021 RMK A01 T01170080  RH  078%=      5-min Rain = 0
KTAS 110955Z 13004KT 12/08 A3021 RMK A01 T01180080  RH  078%=      5-min Rain = 0
KTAS 110956Z 13004KT 12/08 A3021 RMK A01 T01190081  RH  078%=      5-min Rain = 0
KTAS 110957Z 13004KT 12/08 A3021 RMK A01 T01200082  RH  077%=      5-min Rain = 0
KTAS 110958Z 13004KT 12/08 A3021 RMK A01 T01220082  RH  077%=      5-min Rain = 0
KTAS 110959Z 13004KT 12/08 A3021 RMK A01 T01240082  RH  076%=      5-min Rain = 0
KTAS 111000Z 13005KT 13/08 A3021 RMK A01 T01250081  RH  075%=      5-min Rain = 0
KTAS 111001Z 13005KT 13/08 A3021 RMK A01 T01260081  RH  074%=      5-min Rain = 0
KTAS 111002Z 13004KT 13/08 A3021 RMK A01 T01260080  RH  074%=      5-min Rain = 0
KTAS 111003Z 14004KT 13/08 A3021 RMK A01 T01260079  RH  073%=      5-min Rain = 0
KTAS 111004Z 14004KT 13/08 A3021 RMK A01 T01250078  RH  073%=      5-min Rain = 0
KTAS 111005Z 14004KT 12/08 A3021 RMK A01 T01240078  RH  073%=      5-min Rain = 0
KTAS 111006Z 14004KT 12/08 A3021 RMK A01 T01230078  RH  074%=      5-min Rain = 0
KTAS 111007Z 13004KT 12/08 A3021 RMK A01 T01230079  RH  074%=      5-min Rain = 0
KTAS 111008Z 13004KT 12/08 A3021 RMK A01 T01220079  RH  075%=      5-min Rain = 0
KTAS 111009Z 14004KT 12/08 A3021 RMK A01 T01220079  RH  075%=      5-min Rain = 0
KTAS 111010Z 14004KT 12/08 A3021 RMK A01 T01220079  RH  075%=      5-min Rain = 0
KTAS 111011Z 14004KT 12/08 A3021 RMK A01 T01210080  RH  076%=      5-min Rain = 0
KTAS 111012Z 13004KT 12/08 A3021 RMK A01 T01210079  RH  076%=      5-min Rain = 0
KTAS 111013Z 13004KT 12/08 A3021 RMK A01 T01210079  RH  076%=      5-min Rain = 0
KTAS 111014Z 13005KT 12/08 A3021 RMK A01 T01210080  RH  076%=      5-min Rain = 0
KTAS 111015Z 13004KT 12/08 A3021 RMK A01 T01210080  RH  076%=      5-min Rain = 0
KTAS 111016Z 13004KT 12/08 A3021 RMK A01 T01210079  RH  075%=      5-min Rain = 0
KTAS 111017Z 13005KT 12/08 A3021 RMK A01 T01220080  RH  076%=      5-min Rain = 0
KTAS 111018Z 13004KT 12/08 A3021 RMK A01 T01220080  RH  075%=      5-min Rain = 0
KTAS 111019Z 13004KT 12/08 A3021 RMK A01 T01220079  RH  075%=      5-min Rain = 0
KTAS 111020Z 14005KT 12/08 A3021 RMK A01 T01220080  RH  075%=      5-min Rain = 0
KTAS 111021Z 14005KT 12/08 A3021 RMK A01 T01220080  RH  076%=      5-min Rain = 0
KTAS 111022Z 14004KT 12/08 A3021 RMK A01 T01220080  RH  075%=      5-min Rain = 0
KTAS 111023Z 14004KT 12/08 A3021 RMK A01 T01210078  RH  075%=      5-min Rain = 0
KTAS 111024Z 14004KT 12/08 A3021 RMK A01 T01210078  RH  075%=      5-min Rain = 0
KTAS 111025Z 14004KT 12/08 A3021 RMK A01 T01200078  RH  076%=      5-min Rain = 0
KTAS 111026Z 14004KT 12/08 A3021 RMK A01 T01200079  RH  076%=      5-min Rain = 0
KTAS 111027Z 14004KT 12/08 A3021 RMK A01 T01200079  RH  076%=      5-min Rain = 0
KTAS 111028Z 14004KT 12/08 A3021 RMK A01 T01200079  RH  076%=      5-min Rain = 0
KTAS 111029Z 15004KT 12/08 A3021 RMK A01 T01200079  RH  076%=      5-min Rain = 0
KTAS 111030Z 15004KT 12/08 A3021 RMK A01 T01200080  RH  076%=      5-min Rain = 0
KTAS 111031Z 15003KT 12/08 A3021 RMK A01 T01200080  RH  076%=      5-min Rain = 0
KTAS 111032Z 15004KT 12/08 A3021 RMK A01 T01210080  RH  076%=      5-min Rain = 0
KTAS 111033Z 14003KT 12/08 A3021 RMK A01 T01210079  RH  075%=      5-min Rain = 0
KTAS 111034Z 14004KT 12/08 A3021 RMK A01 T01200077  RH  075%=      5-min Rain = 0
KTAS 111035Z 14003KT 12/08 A3021 RMK A01 T01190077  RH  075%=      5-min Rain = 0
KTAS 111036Z 15003KT 12/08 A3021 RMK A01 T01180075  RH  075%=      5-min Rain = 0
KTAS 111037Z 15003KT 12/07 A3021 RMK A01 T01160074  RH  075%=      5-min Rain = 0
KTAS 111038Z 15003KT 11/07 A3021 RMK A01 T01140073  RH  076%=      5-min Rain = 0
KTAS 111039Z 15003KT 11/07 A3021 RMK A01 T01120072  RH  076%=      5-min Rain = 0
KTAS 111040Z 15003KT 11/07 A3021 RMK A01 T01110072  RH  077%=      5-min Rain = 0
KTAS 111041Z 15003KT 11/07 A3021 RMK A01 T01100073  RH  078%=      5-min Rain = 0
KTAS 111042Z 15003KT 11/07 A3021 RMK A01 T01090073  RH  078%=      5-min Rain = 0
KTAS 111043Z 15003KT 11/07 A3021 RMK A01 T01090074  RH  079%=      5-min Rain = 0
KTAS 111044Z 15003KT 11/08 A3021 RMK A01 T01090075  RH  079%=      5-min Rain = 0
KTAS 111045Z 15003KT 11/08 A3021 RMK A01 T01100076  RH  080%=      5-min Rain = 0
KTAS 111046Z 15003KT 11/08 A3021 RMK A01 T01100077  RH  080%=      5-min Rain = 0
KTAS 111047Z 15002KT 11/08 A3021 RMK A01 T01110077  RH  080%=      5-min Rain = 0
KTAS 111048Z 16002KT 11/08 A3021 RMK A01 T01100076  RH  079%=      5-min Rain = 0
KTAS 111049Z 15002KT 11/08 A3021 RMK A01 T01100075  RH  079%=      5-min Rain = 0
KTAS 111050Z 15001KT 11/07 A3021 RMK A01 T01090074  RH  079%=      5-min Rain = 0
KTAS 111051Z 15001KT 11/07 A3022 RMK A01 T01080074  RH  079%=      5-min Rain = 0
KTAS 111052Z 15001KT 11/08 A3022 RMK A01 T01080075  RH  080%=      5-min Rain = 0
KTAS 111053Z 15001KT 11/08 A3022 RMK A01 T01090076  RH  080%=      5-min Rain = 0
KTAS 111054Z 00000KT 11/08 A3022 RMK A01 T01090077  RH  080%=      5-min Rain = 0
KTAS 111055Z 00000KT 11/08 A3022 RMK A01 T01090076  RH  080%=      5-min Rain = 0
KTAS 111056Z 25000KT 11/08 A3022 RMK A01 T01080075  RH  080%=      5-min Rain = 0
KTAS 111057Z 26001KT 11/08 A3022 RMK A01 T01080075  RH  080%=      5-min Rain = 0
KTAS 111058Z 25001KT 11/08 A3022 RMK A01 T01080075  RH  080%=      5-min Rain = 0
KTAS 111059Z 25001KT 11/08 A3022 RMK A01 T01080076  RH  081%=      5-min Rain = 0
KTAS 111100Z 25001KT 11/08 A3022 RMK A01 T01080076  RH  081%=      5-min Rain = 0
KTAS 111101Z 25001KT 11/08 A3022 RMK A01 T01080076  RH  081%=      5-min Rain = 0
KTAS 111102Z 25001KT 11/08 A3022 RMK A01 T01070076  RH  081%=      5-min Rain = 0
KTAS 111103Z 27001KT 11/08 A3022 RMK A01 T01070076  RH  081%=      5-min Rain = 0
KTAS 111104Z 27001KT 11/08 A3022 RMK A01 T01070076  RH  081%=      5-min Rain = 0
KTAS 111105Z 27001KT 11/08 A3022 RMK A01 T01070077  RH  082%=      5-min Rain = 0
KTAS 111106Z 27001KT 11/08 A3022 RMK A01 T01070077  RH  082%=      5-min Rain = 0
KTAS 111107Z 27001KT 11/08 A3022 RMK A01 T01070077  RH  082%=      5-min Rain = 0
KTAS 111108Z 27000KT 11/08 A3022 RMK A01 T01080079  RH  082%=      5-min Rain = 0
KTAS 111109Z 27000KT 11/08 A3022 RMK A01 T01080079  RH  082%=      5-min Rain = 0
KTAS 111110Z 22001KT 11/08 A3022 RMK A01 T01080079  RH  082%=      5-min Rain = 0
KTAS 111111Z 21001KT 11/08 A3022 RMK A01 T01080078  RH  082%=      5-min Rain = 0
KTAS 111112Z 21001KT 11/08 A3022 RMK A01 T01080079  RH  082%=      5-min Rain = 0
KTAS 111113Z 20001KT 11/08 A3022 RMK A01 T01080078  RH  082%=      5-min Rain = 0
KTAS 111114Z 20001KT 11/08 A3022 RMK A01 T01080078  RH  082%=      5-min Rain = 0
KTAS 111115Z 20001KT 11/08 A3022 RMK A01 T01090079  RH  082%=      5-min Rain = 0
KTAS 111116Z 20001KT 11/08 A3022 RMK A01 T01100080  RH  082%=      5-min Rain = 0
KTAS 111117Z 20001KT 11/08 A3022 RMK A01 T01110082  RH  082%=      5-min Rain = 0
KTAS 111118Z 20001KT 11/08 A3022 RMK A01 T01110081  RH  082%=      5-min Rain = 0
KTAS 111119Z 20001KT 11/08 A3022 RMK A01 T01120082  RH  082%=      5-min Rain = 0
KTAS 111120Z 20001KT 11/08 A3022 RMK A01 T01120081  RH  082%=      5-min Rain = 0
KTAS 111121Z 20000KT 11/08 A3022 RMK A01 T01120082  RH  082%=      5-min Rain = 0
KTAS 111122Z 00000KT 11/08 A3022 RMK A01 T01130083  RH  082%=      5-min Rain = 0
KTAS 111123Z 00000KT 11/08 A3022 RMK A01 T01130083  RH  082%=      5-min Rain = 0
KTAS 111124Z 00000KT 11/08 A3022 RMK A01 T01130083  RH  081%=      5-min Rain = 0
KTAS 111125Z 00000KT 11/08 A3022 RMK A01 T01130082  RH  081%=      5-min Rain = 0
KTAS 111126Z 00000KT 11/08 A3022 RMK A01 T01120081  RH  081%=      5-min Rain = 0
KTAS 111127Z 00000KT 11/08 A3022 RMK A01 T01120081  RH  081%=      5-min Rain = 0
KTAS 111128Z 20000KT 11/08 A3022 RMK A01 T01120081  RH  081%=      5-min Rain = 0
KTAS 111129Z 20001KT 11/08 A3022 RMK A01 T01110080  RH  081%=      5-min Rain = 0
KTAS 111130Z 20001KT 11/08 A3022 RMK A01 T01110080  RH  081%=      5-min Rain = 0
KTAS 111131Z 20001KT 11/08 A3022 RMK A01 T01110080  RH  081%=      5-min Rain = 0
KTAS 111132Z 19001KT 11/08 A3022 RMK A01 T01110081  RH  082%=      5-min Rain = 0
KTAS 111133Z 18001KT 11/08 A3022 RMK A01 T01110082  RH  082%=      5-min Rain = 0
KTAS 111134Z 19001KT 11/08 A3022 RMK A01 T01120084  RH  083%=      5-min Rain = 0
KTAS 111135Z 19001KT 11/09 A3022 RMK A01 T01130085  RH  083%=      5-min Rain = 0
KTAS 111136Z 18001KT 11/09 A3022 RMK A01 T01130086  RH  083%=      5-min Rain = 0
KTAS 111137Z 18001KT 11/09 A3022 RMK A01 T01130086  RH  083%=      5-min Rain = 0
KTAS 111138Z 17002KT 11/09 A3022 RMK A01 T01140087  RH  083%=      5-min Rain = 0
KTAS 111139Z 17002KT 11/09 A3022 RMK A01 T01130086  RH  083%=      5-min Rain = 0
KTAS 111140Z 17001KT 11/09 A3022 RMK A01 T01130086  RH  083%=      5-min Rain = 0
KTAS 111141Z 16002KT 11/09 A3022 RMK A01 T01130086  RH  083%=      5-min Rain = 0
KTAS 111142Z 16002KT 11/09 A3022 RMK A01 T01130085  RH  083%=      5-min Rain = 0
KTAS 111143Z 16002KT 11/09 A3022 RMK A01 T01120085  RH  083%=      5-min Rain = 0
KTAS 111144Z 16002KT 11/08 A3022 RMK A01 T01120084  RH  083%=      5-min Rain = 0
KTAS 111145Z 16002KT 11/08 A3022 RMK A01 T01110083  RH  083%=      5-min Rain = 0
KTAS 111146Z 16002KT 11/08 A3022 RMK A01 T01110083  RH  083%=      5-min Rain = 0
KTAS 111147Z 17002KT 11/08 A3022 RMK A01 T01100083  RH  083%=      5-min Rain = 0
KTAS 111148Z 17002KT 11/08 A3022 RMK A01 T01100082  RH  083%=      5-min Rain = 0
KTAS 111149Z 17001KT 11/08 A3022 RMK A01 T01100082  RH  083%=      5-min Rain = 0
KTAS 111150Z 18001KT 11/08 A3022 RMK A01 T01100083  RH  083%=      5-min Rain = 0
KTAS 111151Z 00000KT 11/08 A3022 RMK A01 T01110084  RH  084%=      5-min Rain = 0
KTAS 111152Z 00000KT 11/09 A3022 RMK A01 T01110085  RH  084%=      5-min Rain = 0
KTAS 111153Z 00000KT 11/08 A3022 RMK A01 T01110084  RH  084%=      5-min Rain = 0
KTAS 111154Z 00000KT 11/08 A3022 RMK A01 T01090083  RH  084%=      5-min Rain = 0
KTAS 111155Z 00000KT 11/08 A3022 RMK A01 T01080082  RH  084%=      5-min Rain = 0
KTAS 111156Z 20000KT 11/08 A3022 RMK A01 T01080081  RH  084%=      5-min Rain = 0
KTAS 111157Z 21001KT 11/08 A3022 RMK A01 T01080082  RH  084%=      5-min Rain = 0
KTAS 111158Z 22001KT 11/08 A3022 RMK A01 T01090084  RH  085%=      5-min Rain = 0
KTAS 111159Z 22001KT 11/09 A3022 RMK A01 T01100086  RH  085%=      5-min Rain = 0
KTAS 111200Z 23001KT 11/09 A3022 RMK A01 T01100085  RH  085%=      5-min Rain = 0
KTAS 111201Z 24001KT 11/08 A3022 RMK A01 T01080083  RH  084%=      5-min Rain = 0
KTAS 111202Z 25001KT 11/08 A3022 RMK A01 T01070082  RH  084%=      5-min Rain = 0
KTAS 111203Z 26001KT 11/08 A3022 RMK A01 T01070082  RH  084%=      5-min Rain = 0
KTAS 111204Z 26002KT 11/08 A3022 RMK A01 T01070081  RH  084%=      5-min Rain = 0
KTAS 111205Z 26001KT 11/08 A3022 RMK A01 T01060081  RH  084%=      5-min Rain = 0
KTAS 111206Z 27001KT 11/08 A3022 RMK A01 T01070082  RH  085%=      5-min Rain = 0
KTAS 111207Z 27001KT 11/08 A3022 RMK A01 T01070083  RH  085%=      5-min Rain = 0
KTAS 111208Z 27002KT 11/08 A3022 RMK A01 T01070083  RH  085%=      5-min Rain = 0
KTAS 111209Z 28002KT 11/08 A3023 RMK A01 T01080084  RH  085%=      5-min Rain = 0
KTAS 111210Z 28002KT 11/08 A3023 RMK A01 T01080084  RH  085%=      5-min Rain = 0
KTAS 111211Z 28003KT 11/08 A3023 RMK A01 T01080084  RH  086%=      5-min Rain = 0
KTAS 111212Z 28003KT 11/08 A3023 RMK A01 T01070083  RH  085%=      5-min Rain = 0
KTAS 111213Z 29003KT 11/08 A3023 RMK A01 T01050082  RH  085%=      5-min Rain = 0
KTAS 111214Z 29003KT 11/08 A3023 RMK A01 T01050081  RH  086%=      5-min Rain = 0
KTAS 111215Z 29003KT 10/08 A3023 RMK A01 T01040081  RH  086%=      5-min Rain = 0
KTAS 111216Z 29003KT 11/08 A3023 RMK A01 T01050082  RH  086%=      5-min Rain = 0
KTAS 111217Z 29003KT 11/08 A3023 RMK A01 T01060084  RH  086%=      5-min Rain = 0
KTAS 111218Z 29003KT 11/09 A3023 RMK A01 T01070085  RH  086%=      5-min Rain = 0
KTAS 111219Z 29003KT 11/09 A3023 RMK A01 T01070085  RH  086%=      5-min Rain = 0
KTAS 111220Z 29003KT 11/08 A3023 RMK A01 T01060084  RH  086%=      5-min Rain = 0
KTAS 111221Z 29003KT 11/08 A3023 RMK A01 T01060084  RH  086%=      5-min Rain = 0
KTAS 111222Z 29003KT 11/08 A3023 RMK A01 T01060084  RH  086%=      5-min Rain = 0
KTAS 111223Z 28004KT 11/08 A3023 RMK A01 T01060083  RH  086%=      5-min Rain = 0
KTAS 111224Z 29005KT 11/08 A3023 RMK A01 T01050082  RH  086%=      5-min Rain = 0
KTAS 111225Z 28004KT 11/08 A3023 RMK A01 T01050082  RH  085%=      5-min Rain = 0
KTAS 111226Z 28004KT 11/08 A3023 RMK A01 T01050081  RH  085%=      5-min Rain = 0
KTAS 111227Z 28004KT 11/08 A3023 RMK A01 T01050082  RH  085%=      5-min Rain = 0
KTAS 111228Z 29004KT 11/08 A3023 RMK A01 T01050082  RH  086%=      5-min Rain = 0
KTAS 111229Z 29005KT 11/08 A3023 RMK A01 T01050082  RH  086%=      5-min Rain = 0
KTAS 111230Z 29005KT 11/08 A3023 RMK A01 T01050082  RH  086%=      5-min Rain = 0
KTAS 111231Z 28005KT 11/08 A3023 RMK A01 T01050082  RH  086%=      5-min Rain = 0
KTAS 111232Z 29004KT 11/08 A3023 RMK A01 T01050081  RH  085%=      5-min Rain = 0
KTAS 111233Z 29005KT 10/08 A3023 RMK A01 T01040081  RH  085%=      5-min Rain = 0
KTAS 111234Z 29005KT 11/08 A3023 RMK A01 T01050082  RH  086%=      5-min Rain = 0
KTAS 111235Z 29005KT 11/08 A3023 RMK A01 T01050082  RH  085%=      5-min Rain = 0
KTAS 111236Z 29005KT 11/08 A3023 RMK A01 T01050081  RH  085%=      5-min Rain = 0
KTAS 111237Z 29004KT 11/08 A3023 RMK A01 T01050082  RH  085%=      5-min Rain = 0
KTAS 111238Z 29004KT 11/08 A3023 RMK A01 T01050082  RH  085%=      5-min Rain = 0
KTAS 111239Z 29005KT 11/08 A3023 RMK A01 T01050082  RH  085%=      5-min Rain = 0
KTAS 111240Z 29005KT 11/08 A3023 RMK A01 T01050081  RH  085%=      5-min Rain = 0
KTAS 111241Z 28004KT 11/08 A3023 RMK A01 T01050081  RH  085%=      5-min Rain = 0
KTAS 111242Z 28004KT 11/08 A3023 RMK A01 T01050081  RH  085%=      5-min Rain = 0
KTAS 111243Z 28004KT 11/08 A3023 RMK A01 T01050081  RH  085%=      5-min Rain = 0
KTAS 111244Z 28005KT 11/08 A3023 RMK A01 T01050081  RH  085%=      5-min Rain = 0
KTAS 111245Z 28004KT 11/08 A3023 RMK A01 T01050082  RH  085%=      5-min Rain = 0
KTAS 111246Z 28004KT 11/08 A3023 RMK A01 T01060082  RH  085%=      5-min Rain = 0
KTAS 111247Z 28004KT 11/08 A3023 RMK A01 T01060082  RH  085%=      5-min Rain = 0
KTAS 111248Z 28004KT 11/08 A3023 RMK A01 T01070083  RH  085%=      5-min Rain = 0
KTAS 111249Z 27004KT 11/08 A3023 RMK A01 T01070083  RH  085%=      5-min Rain = 0
KTAS 111250Z 27004KT 11/08 A3023 RMK A01 T01070083  RH  085%=      5-min Rain = 0
KTAS 111251Z 27004KT 11/08 A3023 RMK A01 T01080083  RH  084%=      5-min Rain = 0
KTAS 111252Z 27004KT 11/08 A3023 RMK A01 T01080083  RH  084%=      5-min Rain = 0
KTAS 111253Z 28004KT 11/08 A3023 RMK A01 T01080083  RH  084%=      5-min Rain = 0
KTAS 111254Z 28003KT 11/08 A3023 RMK A01 T01080083  RH  084%=      5-min Rain = 0
KTAS 111255Z 27003KT 11/08 A3023 RMK A01 T01090084  RH  084%=      5-min Rain = 0
KTAS 111256Z 27003KT 11/08 A3023 RMK A01 T01100084  RH  084%=      5-min Rain = 0
KTAS 111257Z 27003KT 11/09 A3023 RMK A01 T01110085  RH  084%=      5-min Rain = 0
KTAS 111258Z 27003KT 11/09 A3023 RMK A01 T01110085  RH  084%=      5-min Rain = 0
KTAS 111259Z 26004KT 11/09 A3023 RMK A01 T01120086  RH  084%=      5-min Rain = 0
KTAS 111300Z 26004KT 11/09 A3023 RMK A01 T01120086  RH  084%=      5-min Rain = 0
KTAS 111301Z 27004KT 11/09 A3023 RMK A01 T01130086  RH  084%=      5-min Rain = 0
KTAS 111302Z 27003KT 11/09 A3023 RMK A01 T01140087  RH  083%=      5-min Rain = 0
KTAS 111303Z 27003KT 12/09 A3023 RMK A01 T01150088  RH  083%=      5-min Rain = 0
KTAS 111304Z 26003KT 12/09 A3023 RMK A01 T01160088  RH  083%=      5-min Rain = 0
KTAS 111305Z 26003KT 12/09 A3023 RMK A01 T01160088  RH  083%=      5-min Rain = 0
KTAS 111306Z 26003KT 12/09 A3023 RMK A01 T01170088  RH  083%=      5-min Rain = 0
KTAS 111307Z 26003KT 12/09 A3023 RMK A01 T01180089  RH  083%=      5-min Rain = 0
KTAS 111308Z 26003KT 12/09 A3023 RMK A01 T01190090  RH  083%=      5-min Rain = 0
KTAS 111309Z 26003KT 12/09 A3023 RMK A01 T01200091  RH  082%=      5-min Rain = 0
KTAS 111310Z 25003KT 12/09 A3023 RMK A01 T01200091  RH  082%=      5-min Rain = 0
KTAS 111311Z 25002KT 12/09 A3023 RMK A01 T01210092  RH  082%=      5-min Rain = 0
KTAS 111312Z 25003KT 12/09 A3023 RMK A01 T01220092  RH  082%=      5-min Rain = 0
KTAS 111313Z 25003KT 12/09 A3023 RMK A01 T01230092  RH  081%=      5-min Rain = 0
KTAS 111314Z 25002KT 12/09 A3023 RMK A01 T01240092  RH  081%=      5-min Rain = 0
KTAS 111315Z 25002KT 13/09 A3023 RMK A01 T01260093  RH  080%=      5-min Rain = 0
KTAS 111316Z 25002KT 13/09 A3023 RMK A01 T01270093  RH  080%=      5-min Rain = 0
KTAS 111317Z 25002KT 13/09 A3023 RMK A01 T01280094  RH  080%=      5-min Rain = 0
KTAS 111318Z 25003KT 13/09 A3023 RMK A01 T01290094  RH  079%=      5-min Rain = 0
KTAS 111319Z 25002KT 13/09 A3023 RMK A01 T01290094  RH  079%=      5-min Rain = 0
KTAS 111320Z 25002KT 13/10 A3023 RMK A01 T01310095  RH  079%=      5-min Rain = 0
KTAS 111321Z 24002KT 13/10 A3023 RMK A01 T01320096  RH  079%=      5-min Rain = 0
KTAS 111322Z 25002KT 13/10 A3023 RMK A01 T01330097  RH  079%=      5-min Rain = 0
KTAS 111323Z 25002KT 13/10 A3023 RMK A01 T01340097  RH  079%=      5-min Rain = 0
KTAS 111324Z 25002KT 14/10 A3023 RMK A01 T01350098  RH  078%=      5-min Rain = 0
KTAS 111325Z 25002KT 14/10 A3023 RMK A01 T01360099  RH  078%=      5-min Rain = 0
KTAS 111326Z 25001KT 14/10 A3023 RMK A01 T01370099  RH  078%=      5-min Rain = 0
KTAS 111327Z 24001KT 14/10 A3023 RMK A01 T01380100  RH  078%=      5-min Rain = 0
KTAS 111328Z 24001KT 14/10 A3023 RMK A01 T01390102  RH  078%=      5-min Rain = 0
KTAS 111329Z 24001KT 14/10 A3023 RMK A01 T01410103  RH  078%=      5-min Rain = 0
KTAS 111330Z 25001KT 14/10 A3023 RMK A01 T01420103  RH  077%=      5-min Rain = 0
KTAS 111331Z 26001KT 14/10 A3023 RMK A01 T01430103  RH  076%=      5-min Rain = 0
KTAS 111332Z 27001KT 15/10 A3023 RMK A01 T01450103  RH  076%=      5-min Rain = 0
KTAS 111333Z 26001KT 15/11 A3024 RMK A01 T01470105  RH  076%=      5-min Rain = 0
KTAS 111334Z 28001KT 15/11 A3024 RMK A01 T01480105  RH  075%=      5-min Rain = 0
KTAS 111335Z 26001KT 15/10 A3024 RMK A01 T01490104  RH  074%=      5-min Rain = 0
KTAS 111336Z 29001KT 15/10 A3024 RMK A01 T01510103  RH  073%=      5-min Rain = 0
KTAS 111337Z 27001KT 15/10 A3024 RMK A01 T01520104  RH  073%=      5-min Rain = 0
KTAS 111338Z 27001KT 15/10 A3024 RMK A01 T01540104  RH  072%=      5-min Rain = 0
KTAS 111339Z 26001KT 16/10 A3024 RMK A01 T01550103  RH  071%=      5-min Rain = 0
KTAS 111340Z 29001KT 16/10 A3024 RMK A01 T01560104  RH  071%=      5-min Rain = 0
KTAS 111341Z 28001KT 16/10 A3024 RMK A01 T01570104  RH  070%=      5-min Rain = 0
KTAS 111342Z 28001KT 16/10 A3024 RMK A01 T01580104  RH  070%=      5-min Rain = 0
KTAS 111343Z 27001KT 16/11 A3024 RMK A01 T01600105  RH  070%=      5-min Rain = 0
KTAS 111344Z 29001KT 16/11 A3024 RMK A01 T01610105  RH  070%=      5-min Rain = 0
KTAS 111345Z 30001KT 16/11 A3024 RMK A01 T01610106  RH  070%=      5-min Rain = 0
KTAS 111346Z 29001KT 16/11 A3024 RMK A01 T01610105  RH  069%=      5-min Rain = 0
KTAS 111347Z 29001KT 16/11 A3024 RMK A01 T01620106  RH  070%=      5-min Rain = 0
KTAS 111348Z 27001KT 16/11 A3024 RMK A01 T01630107  RH  069%=      5-min Rain = 0
KTAS 111349Z 26001KT 16/11 A3024 RMK A01 T01640107  RH  069%=      5-min Rain = 0
KTAS 111350Z 28001KT 17/11 A3024 RMK A01 T01660108  RH  069%=      5-min Rain = 0
KTAS 111351Z 27001KT 17/11 A3024 RMK A01 T01670106  RH  067%=      5-min Rain = 0
KTAS 111352Z 25001KT 17/11 A3024 RMK A01 T01680106  RH  067%=      5-min Rain = 0
KTAS 111353Z 26001KT 17/11 A3024 RMK A01 T01690105  RH  066%=      5-min Rain = 0
KTAS 111354Z 25001KT 17/10 A3024 RMK A01 T01700101  RH  064%=      5-min Rain = 0
KTAS 111355Z 25001KT 17/10 A3024 RMK A01 T01710102  RH  064%=      5-min Rain = 0
KTAS 111356Z 24001KT 17/10 A3024 RMK A01 T01720102  RH  063%=      5-min Rain = 0
KTAS 111357Z 26001KT 17/10 A3024 RMK A01 T01740103  RH  063%=      5-min Rain = 0
KTAS 111358Z 23002KT 17/10 A3024 RMK A01 T01740101  RH  062%=      5-min Rain = 0
KTAS 111359Z 23002KT 18/10 A3024 RMK A01 T01750101  RH  062%=      5-min Rain = 0
KTAS 111400Z 22001KT 18/10 A3024 RMK A01 T01750100  RH  061%=      5-min Rain = 0
KTAS 111401Z 23002KT 18/10 A3024 RMK A01 T01760101  RH  061%=      5-min Rain = 0
KTAS 111402Z 22002KT 18/10 A3024 RMK A01 T01770100  RH  060%=      5-min Rain = 0
KTAS 111403Z 21002KT 18/10 A3024 RMK A01 T01780098  RH  060%=      5-min Rain = 0
KTAS 111404Z 22002KT 18/10 A3024 RMK A01 T01790100  RH  060%=      5-min Rain = 0
KTAS 111405Z 23002KT 18/10 A3024 RMK A01 T01800099  RH  059%=      5-min Rain = 0
KTAS 111406Z 22003KT 18/10 A3024 RMK A01 T01810099  RH  059%=      5-min Rain = 0
KTAS 111407Z 22002KT 18/10 A3024 RMK A01 T01820099  RH  058%=      5-min Rain = 0
KTAS 111408Z 23002KT 18/10 A3024 RMK A01 T01820098  RH  058%=      5-min Rain = 0
KTAS 111409Z 25002KT 18/10 A3024 RMK A01 T01830099  RH  058%=      5-min Rain = 0
KTAS 111410Z 24003KT 18/10 A3024 RMK A01 T01830099  RH  058%=      5-min Rain = 0
KTAS 111411Z 24002KT 18/10 A3024 RMK A01 T01840100  RH  058%=      5-min Rain = 0
KTAS 111412Z 23004KT 19/10 A3024 RMK A01 T01860098  RH  057%=      5-min Rain = 0
KTAS 111413Z 23004KT 19/10 A3024 RMK A01 T01860096  RH  056%=      5-min Rain = 0
KTAS 111414Z 23003KT 19/10 A3024 RMK A01 T01860096  RH  056%=      5-min Rain = 0
KTAS 111415Z 23004KT 19/10 A3024 RMK A01 T01850096  RH  056%=      5-min Rain = 0
KTAS 111416Z 21003KT 19/10 A3024 RMK A01 T01860098  RH  056%=      5-min Rain = 0
KTAS 111417Z 24003KT 19/10 A3024 RMK A01 T01880098  RH  056%=      5-min Rain = 0
KTAS 111418Z 22003KT 19/10 A3024 RMK A01 T01890097  RH  055%=      5-min Rain = 0
KTAS 111419Z 21002KT 19/10 A3024 RMK A01 T01880097  RH  055%=      5-min Rain = 0
KTAS 111420Z 22002KT 19/10 A3024 RMK A01 T01900100  RH  056%=      5-min Rain = 0
KTAS 111421Z 24002KT 19/10 A3024 RMK A01 T01910100  RH  055%=      5-min Rain = 0
KTAS 111422Z 23003KT 19/10 A3024 RMK A01 T01920100  RH  055%=      5-min Rain = 0
KTAS 111423Z 27003KT 19/10 A3024 RMK A01 T01920103  RH  056%=      5-min Rain = 0
KTAS 111424Z 26002KT 19/11 A3024 RMK A01 T01920106  RH  058%=      5-min Rain = 0
KTAS 111425Z 24002KT 19/11 A3024 RMK A01 T01930105  RH  057%=      5-min Rain = 0
KTAS 111426Z 23003KT 19/10 A3024 RMK A01 T01930104  RH  056%=      5-min Rain = 0
KTAS 111427Z 22004KT 19/10 A3024 RMK A01 T01940102  RH  055%=      5-min Rain = 0
KTAS 111428Z 24003KT 19/10 A3024 RMK A01 T01930101  RH  055%=      5-min Rain = 0
KTAS 111429Z 25003KT 20/11 A3024 RMK A01 T01950106  RH  056%=      5-min Rain = 0
KTAS 111430Z 23004KT 20/10 A3024 RMK A01 T01960103  RH  055%=      5-min Rain = 0
KTAS 111431Z 22004KT 20/10 A3024 RMK A01 T01960103  RH  055%=      5-min Rain = 0
KTAS 111432Z 24005KT 20/10 A3024 RMK A01 T01960102  RH  055%=      5-min Rain = 0
KTAS 111433Z 22004KT 20/10 A3024 RMK A01 T01970102  RH  054%=      5-min Rain = 0
KTAS 111434Z 23005KT 20/10 A3024 RMK A01 T01980101  RH  054%=      5-min Rain = 0
KTAS 111435Z 23005KT 20/10 A3024 RMK A01 T01980099  RH  053%=      5-min Rain = 0
KTAS 111436Z 23005KT 20/10 A3024 RMK A01 T01990100  RH  053%=      5-min Rain = 0
KTAS 111437Z 22006KT 20/10 A3024 RMK A01 T01990101  RH  053%=      5-min Rain = 0
KTAS 111438Z 24005KT 20/10 A3024 RMK A01 T01990100  RH  053%=      5-min Rain = 0
KTAS 111439Z 24005KT 20/10 A3024 RMK A01 T01980101  RH  053%=      5-min Rain = 0
KTAS 111440Z 23005KT 20/10 A3024 RMK A01 T01990099  RH  052%=      5-min Rain = 0
KTAS 111441Z 24004KT 20/10 A3024 RMK A01 T02000101  RH  053%=      5-min Rain = 0
KTAS 111442Z 21004KT 20/10 A3024 RMK A01 T02000103  RH  053%=      5-min Rain = 0
KTAS 111443Z 21006KT 20/10 A3024 RMK A01 T02020102  RH  052%=      5-min Rain = 0
KTAS 111444Z 24003KT 20/10 A3024 RMK A01 T02030104  RH  053%=      5-min Rain = 0
KTAS 111445Z 23003KT 20/11 A3024 RMK A01 T02040105  RH  053%=      5-min Rain = 0
KTAS 111446Z 21004KT 21/10 A3024 RMK A01 T02060104  RH  052%=      5-min Rain = 0
KTAS 111447Z 21005KT 21/10 A3024 RMK A01 T02070103  RH  051%=      5-min Rain = 0
KTAS 111448Z 23002KT 21/10 A3024 RMK A01 T02060103  RH  051%=      5-min Rain = 0
KTAS 111449Z 22004KT 21/10 A3024 RMK A01 T02060103  RH  052%=      5-min Rain = 0
KTAS 111450Z 22004KT 21/10 A3024 RMK A01 T02070103  RH  051%=      5-min Rain = 0
KTAS 111451Z 21002KT 21/10 A3024 RMK A01 T02070103  RH  051%=      5-min Rain = 0
KTAS 111452Z 22003KT 21/10 A3024 RMK A01 T02090104  RH  051%=      5-min Rain = 0
KTAS 111453Z 19004KT 21/10 A3024 RMK A01 T02110104  RH  050%=      5-min Rain = 0
KTAS 111454Z 20006KT 21/10 A3024 RMK A01 T02140100  RH  048%=      5-min Rain = 0
KTAS 111455Z 22005KT 21/10 A3024 RMK A01 T02130099  RH  048%=      5-min Rain = 0
KTAS 111456Z 21005KT 21/10 A3024 RMK A01 T02110098  RH  048%=      5-min Rain = 0
KTAS 111457Z 20006KT 21/10 A3024 RMK A01 T02110099  RH  049%=      5-min Rain = 0
KTAS 111458Z 21006KT 21/10 A3024 RMK A01 T02110098  RH  048%=      5-min Rain = 0
KTAS 111459Z 20006KT 21/10 A3024 RMK A01 T02090097  RH  049%=      5-min Rain = 0
KTAS 111500Z 20005KT 21/10 A3024 RMK A01 T02090099  RH  049%=      5-min Rain = 0
KTAS 111501Z 20005KT 21/10 A3024 RMK A01 T02100099  RH  049%=      5-min Rain = 0
KTAS 111502Z 21005KT 21/10 A3024 RMK A01 T02110099  RH  049%=      5-min Rain = 0
KTAS 111503Z 22004KT 21/10 A3024 RMK A01 T02120101  RH  049%=      5-min Rain = 0
KTAS 111504Z 23004KT 21/10 A3024 RMK A01 T02130099  RH  048%=      5-min Rain = 0
KTAS 111505Z 23004KT 21/10 A3024 RMK A01 T02130099  RH  048%=      5-min Rain = 0
KTAS 111506Z 23005KT 21/10 A3024 RMK A01 T02130101  RH  049%=      5-min Rain = 0
KTAS 111507Z 25003KT 21/10 A3024 RMK A01 T02130099  RH  048%=      5-min Rain = 0
KTAS 111508Z 22002KT 21/10 A3024 RMK A01 T02120099  RH  049%=      5-min Rain = 0
KTAS 111509Z 19004KT 21/10 A3024 RMK A01 T02130102  RH  049%=      5-min Rain = 0
KTAS 111510Z 19004KT 22/10 A3024 RMK A01 T02170101  RH  048%=      5-min Rain = 0
KTAS 111511Z 21003KT 22/10 A3024 RMK A01 T02180099  RH  047%=      5-min Rain = 0
KTAS 111512Z 21004KT 22/10 A3024 RMK A01 T02190102  RH  047%=      5-min Rain = 0
KTAS 111513Z 20005KT 22/10 A3024 RMK A01 T02200101  RH  047%=      5-min Rain = 0
KTAS 111514Z 18006KT 22/10 A3024 RMK A01 T02230103  RH  047%=      5-min Rain = 0
KTAS 111515Z 20005KT 22/10 A3024 RMK A01 T02240102  RH  046%=      5-min Rain = 0
KTAS 111516Z 20005KT 22/10 A3024 RMK A01 T02230102  RH  046%=      5-min Rain = 0
KTAS 111517Z 23006KT 22/10 A3024 RMK A01 T02240102  RH  046%=      5-min Rain = 0
KTAS 111518Z 21005KT 22/10 A3024 RMK A01 T02230099  RH  045%=      5-min Rain = 0
KTAS 111519Z 21007KT 22/10 A3024 RMK A01 T02230099  RH  045%=      5-min Rain = 0
KTAS 111520Z 21008KT 23/10 A3024 RMK A01 T02260098  RH  044%=      5-min Rain = 0
KTAS 111521Z 22007KT 23/10 A3024 RMK A01 T02260097  RH  044%=      5-min Rain = 0
KTAS 111522Z 24006KT 23/10 A3024 RMK A01 T02250097  RH  044%=      5-min Rain = 0
KTAS 111523Z 24005KT 22/10 A3024 RMK A01 T02240098  RH  045%=      5-min Rain = 0
KTAS 111524Z 20006KT 23/10 A3024 RMK A01 T02260099  RH  045%=      5-min Rain = 0
KTAS 111525Z 20007KT 23/10 A3024 RMK A01 T02280098  RH  044%=      5-min Rain = 0
KTAS 111526Z 21007KT 23/10 A3024 RMK A01 T02270097  RH  044%=      5-min Rain = 0
KTAS 111527Z 21006KT 23/10 A3024 RMK A01 T02250096  RH  044%=      5-min Rain = 0
KTAS 111528Z 20006KT 23/10 A3024 RMK A01 T02250097  RH  044%=      5-min Rain = 0
KTAS 111529Z 22007KT 23/10 A3024 RMK A01 T02270098  RH  044%=      5-min Rain = 0
KTAS 111530Z 22008KT 23/10 A3024 RMK A01 T02290098  RH  043%=      5-min Rain = 0
KTAS 111531Z 22006KT 23/10 A3024 RMK A01 T02280096  RH  043%=      5-min Rain = 0
KTAS 111532Z 21006KT 23/10 A3024 RMK A01 T02250098  RH  044%=      5-min Rain = 0
KTAS 111533Z 20006KT 23/10 A3024 RMK A01 T02270098  RH  044%=      5-min Rain = 0
KTAS 111534Z 20007KT 23/10 A3024 RMK A01 T02290099  RH  044%=      5-min Rain = 0
KTAS 111535Z 19007KT 23/10 A3024 RMK A01 T02310099  RH  043%=      5-min Rain = 0
KTAS 111536Z 21008KT 23/10 A3024 RMK A01 T02330099  RH  043%=      5-min Rain = 0
KTAS 111537Z 21008KT 23/10 A3024 RMK A01 T02320097  RH  042%=      5-min Rain = 0
KTAS 111538Z 21005KT 23/10 A3024 RMK A01 T02300097  RH  043%=      5-min Rain = 0
KTAS 111539Z 21005KT 23/10 A3024 RMK A01 T02310098  RH  043%=      5-min Rain = 0
KTAS 111540Z 21007KT 23/10 A3024 RMK A01 T02320097  RH  042%=      5-min Rain = 0
KTAS 111541Z 22005KT 23/10 A3025 RMK A01 T02300098  RH  043%=      5-min Rain = 0
KTAS 111542Z 21008KT 23/10 A3025 RMK A01 T02330098  RH  042%=      5-min Rain = 0
KTAS 111543Z 20004KT 23/10 A3025 RMK A01 T02330099  RH  042%=      5-min Rain = 0
KTAS 111544Z 22004KT 24/10 A3025 RMK A01 T02350099  RH  042%=      5-min Rain = 0
KTAS 111545Z 21003KT 24/10 A3025 RMK A01 T02360098  RH  042%=      5-min Rain = 0
KTAS 111546Z 22005KT 24/10 A3025 RMK A01 T02360100  RH  042%=      5-min Rain = 0
KTAS 111547Z 24004KT 24/10 A3025 RMK A01 T02360101  RH  042%=      5-min Rain = 0
KTAS 111548Z 27004KT 24/10 A3025 RMK A01 T02350097  RH  042%=      5-min Rain = 0
KTAS 111549Z 26003KT 23/10 A3025 RMK A01 T02330100  RH  043%=      5-min Rain = 0
KTAS 111550Z 22007KT 24/10 A3025 RMK A01 T02360100  RH  042%=      5-min Rain = 0
KTAS 111551Z 20006KT 24/10 A3025 RMK A01 T02380098  RH  041%=      5-min Rain = 0
KTAS 111552Z 21007KT 24/10 A3025 RMK A01 T02360099  RH  042%=      5-min Rain = 0
KTAS 111553Z 21005KT 24/10 A3025 RMK A01 T02370099  RH  041%=      5-min Rain = 0
KTAS 111554Z 19006KT 24/10 A3024 RMK A01 T02370098  RH  041%=      5-min Rain = 0
KTAS 111555Z 19007KT 24/10 A3024 RMK A01 T02360097  RH  041%=      5-min Rain = 0
KTAS 111556Z 19006KT 24/10 A3024 RMK A01 T02350098  RH  042%=      5-min Rain = 0
KTAS 111557Z 19005KT 24/10 A3024 RMK A01 T02360098  RH  042%=      5-min Rain = 0
KTAS 111558Z 19004KT 24/10 A3024 RMK A01 T02370098  RH  041%=      5-min Rain = 0
KTAS 111559Z 18004KT 24/10 A3024 RMK A01 T02380098  RH  041%=      5-min Rain = 0
KTAS 111600Z 22004KT 24/10 A3024 RMK A01 T02410100  RH  041%=      5-min Rain = 0
KTAS 111601Z 25004KT 24/10 A3024 RMK A01 T02420099  RH  040%=      5-min Rain = 0
KTAS 111602Z 24005KT 24/10 A3024 RMK A01 T02430097  RH  040%=      5-min Rain = 0
KTAS 111603Z 23006KT 24/10 A3024 RMK A01 T02400097  RH  040%=      5-min Rain = 0
KTAS 111604Z 24006KT 24/10 A3024 RMK A01 T02390097  RH  041%=      5-min Rain = 0
KTAS 111605Z 23005KT 24/10 A3024 RMK A01 T02380097  RH  041%=      5-min Rain = 0
KTAS 111606Z 20006KT 24/10 A3024 RMK A01 T02390098  RH  041%=      5-min Rain = 0
KTAS 111607Z 20005KT 24/10 A3024 RMK A01 T02400097  RH  040%=      5-min Rain = 0
KTAS 111608Z 23006KT 24/10 A3024 RMK A01 T02390097  RH  041%=      5-min Rain = 0
KTAS 111609Z 23005KT 24/10 A3024 RMK A01 T02380097  RH  041%=      5-min Rain = 0
KTAS 111610Z 25005KT 24/10 A3024 RMK A01 T02380097  RH  041%=      5-min Rain = 0
KTAS 111611Z 25008KT 24/10 A3024 RMK A01 T02390098  RH  041%=      5-min Rain = 0
KTAS 111612Z 25006KT 24/10 A3024 RMK A01 T02400098  RH  041%=      5-min Rain = 0
KTAS 111613Z 27006KT 24/10 A3024 RMK A01 T02410098  RH  040%=      5-min Rain = 0
KTAS 111614Z 25006KT 24/10 A3024 RMK A01 T02420099  RH  040%=      5-min Rain = 0
KTAS 111615Z 23006KT 24/10 A3024 RMK A01 T02440097  RH  039%=      5-min Rain = 0
KTAS 111616Z 24006KT 24/10 A3024 RMK A01 T02430096  RH  039%=      5-min Rain = 0
KTAS 111617Z 25006KT 24/10 A3024 RMK A01 T02430096  RH  039%=      5-min Rain = 0
KTAS 111618Z 25006KT 24/09 A3024 RMK A01 T02430094  RH  039%=      5-min Rain = 0
KTAS 111619Z 25006KT 24/09 A3024 RMK A01 T02410092  RH  039%=      5-min Rain = 0
KTAS 111620Z 24005KT 24/10 A3024 RMK A01 T02410097  RH  040%=      5-min Rain = 0
KTAS 111621Z 24004KT 24/09 A3024 RMK A01 T02410093  RH  039%=      5-min Rain = 0
KTAS 111622Z 22003KT 24/10 A3024 RMK A01 T02400095  RH  040%=      5-min Rain = 0
KTAS 111623Z 23006KT 24/10 A3024 RMK A01 T02420097  RH  040%=      5-min Rain = 0
KTAS 111624Z 24002KT 24/10 A3024 RMK A01 T02420096  RH  040%=      5-min Rain = 0
KTAS 111625Z 22003KT 24/10 A3024 RMK A01 T02410097  RH  040%=      5-min Rain = 0
KTAS 111626Z 23006KT 24/10 A3024 RMK A01 T02430097  RH  039%=      5-min Rain = 0
KTAS 111627Z 21004KT 25/10 A3024 RMK A01 T02450097  RH  039%=      5-min Rain = 0
KTAS 111628Z 22004KT 25/10 A3024 RMK A01 T02470097  RH  039%=      5-min Rain = 0
KTAS 111629Z 23003KT 25/10 A3024 RMK A01 T02490097  RH  038%=      5-min Rain = 0
KTAS 111630Z 22004KT 25/10 A3024 RMK A01 T02470097  RH  039%=      5-min Rain = 0
KTAS 111631Z 19003KT 24/10 A3024 RMK A01 T02440096  RH  039%=      5-min Rain = 0
KTAS 111632Z 24004KT 25/10 A3024 RMK A01 T02450099  RH  040%=      5-min Rain = 0
KTAS 111633Z 25005KT 25/10 A3024 RMK A01 T02470098  RH  039%=      5-min Rain = 0
KTAS 111634Z 26003KT 25/10 A3024 RMK A01 T02470098  RH  039%=      5-min Rain = 0
KTAS 111635Z 19006KT 25/10 A3024 RMK A01 T02490099  RH  039%=      5-min Rain = 0
KTAS 111636Z 22007KT 25/10 A3024 RMK A01 T02520100  RH  038%=      5-min Rain = 0
KTAS 111637Z 22006KT 25/10 A3024 RMK A01 T02540100  RH  038%=      5-min Rain = 0
KTAS 111638Z 22003KT 26/10 A3024 RMK A01 T02550099  RH  037%=      5-min Rain = 0
KTAS 111639Z 23003KT 25/10 A3024 RMK A01 T02530099  RH  038%=      5-min Rain = 0
KTAS 111640Z 23004KT 25/10 A3024 RMK A01 T02540097  RH  037%=      5-min Rain = 0
KTAS 111641Z 21004KT 25/10 A3024 RMK A01 T02520096  RH  037%=      5-min Rain = 0
KTAS 111642Z 19003KT 25/09 A3024 RMK A01 T02490094  RH  037%=      5-min Rain = 0
KTAS 111643Z 20002KT 25/09 A3024 RMK A01 T02470093  RH  038%=      5-min Rain = 0
KTAS 111644Z 13002KT 25/09 A3024 RMK A01 T02470094  RH  038%=      5-min Rain = 0
KTAS 111645Z 15002KT 25/10 A3024 RMK A01 T02500095  RH  037%=      5-min Rain = 0
KTAS 111646Z 13001KT 25/09 A3024 RMK A01 T02530094  RH  037%=      5-min Rain = 0
KTAS 111647Z 19002KT 26/10 A3024 RMK A01 T02550095  RH  036%=      5-min Rain = 0
KTAS 111648Z 23002KT 26/10 A3024 RMK A01 T02550095  RH  036%=      5-min Rain = 0
KTAS 111649Z 20005KT 25/10 A3024 RMK A01 T02530097  RH  037%=      5-min Rain = 0
KTAS 111650Z 21005KT 25/10 A3024 RMK A01 T02520098  RH  038%=      5-min Rain = 0
KTAS 111651Z 22007KT 25/10 A3024 RMK A01 T02530099  RH  038%=      5-min Rain = 0
KTAS 111652Z 22005KT 25/10 A3024 RMK A01 T02530095  RH  037%=      5-min Rain = 0
KTAS 111653Z 23005KT 25/10 A3024 RMK A01 T02520095  RH  037%=      5-min Rain = 0
KTAS 111654Z 25003KT 25/10 A3024 RMK A01 T02500095  RH  037%=      5-min Rain = 0
KTAS 111655Z 20005KT 25/10 A3024 RMK A01 T02500097  RH  038%=      5-min Rain = 0
KTAS 111656Z 21006KT 25/10 A3024 RMK A01 T02510096  RH  038%=      5-min Rain = 0
KTAS 111657Z 23003KT 25/10 A3024 RMK A01 T02500097  RH  038%=      5-min Rain = 0
KTAS 111658Z 26001KT 25/10 A3024 RMK A01 T02510096  RH  037%=      5-min Rain = 0
KTAS 111659Z 16001KT 25/10 A3024 RMK A01 T02520095  RH  037%=      5-min Rain = 0
KTAS 111700Z 19004KT 25/10 A3024 RMK A01 T02540095  RH  037%=      5-min Rain = 0
KTAS 111701Z 20004KT 26/10 A3024 RMK A01 T02560096  RH  036%=      5-min Rain = 0
KTAS 111702Z 22003KT 26/10 A3023 RMK A01 T02590098  RH  036%=      5-min Rain = 0
KTAS 111703Z 24002KT 26/10 A3023 RMK A01 T02600095  RH  035%=      5-min Rain = 0
KTAS 111704Z 25002KT 26/09 A3023 RMK A01 T02550094  RH  036%=      5-min Rain = 0
KTAS 111705Z 24006KT 26/10 A3023 RMK A01 T02550097  RH  037%=      5-min Rain = 0
KTAS 111706Z 24005KT 26/10 A3023 RMK A01 T02560097  RH  037%=      5-min Rain = 0
KTAS 111707Z 22004KT 26/10 A3023 RMK A01 T02560097  RH  037%=      5-min Rain = 0
KTAS 111708Z 22002KT 26/10 A3024 RMK A01 T02570097  RH  037%=      5-min Rain = 0
KTAS 111709Z 24002KT 26/10 A3024 RMK A01 T02560096  RH  036%=      5-min Rain = 0
KTAS 111710Z 14002KT 26/10 A3023 RMK A01 T02570097  RH  036%=      5-min Rain = 0
KTAS 111711Z 16002KT 26/10 A3023 RMK A01 T02600098  RH  036%=      5-min Rain = 0
KTAS 111712Z 18004KT 26/10 A3023 RMK A01 T02600096  RH  035%=      5-min Rain = 0
KTAS 111713Z 20003KT 26/10 A3023 RMK A01 T02590097  RH  036%=      5-min Rain = 0
KTAS 111714Z 19005KT 26/10 A3023 RMK A01 T02600098  RH  036%=      5-min Rain = 0
KTAS 111715Z 15004KT 26/10 A3023 RMK A01 T02620098  RH  036%=      5-min Rain = 0
KTAS 111716Z 20002KT 26/10 A3023 RMK A01 T02630098  RH  035%=      5-min Rain = 0
KTAS 111717Z 21004KT 27/10 A3023 RMK A01 T02660098  RH  035%=      5-min Rain = 0
KTAS 111718Z 21005KT 27/10 A3023 RMK A01 T02650096  RH  035%=      5-min Rain = 0
KTAS 111719Z 18001KT 26/09 A3023 RMK A01 T02600094  RH  035%=      5-min Rain = 0
KTAS 111720Z 18002KT 26/10 A3023 RMK A01 T02580096  RH  036%=      5-min Rain = 0
KTAS 111721Z 18005KT 26/10 A3023 RMK A01 T02600097  RH  036%=      5-min Rain = 0
KTAS 111722Z 17004KT 26/10 A3023 RMK A01 T02620097  RH  035%=      5-min Rain = 0
KTAS 111723Z 17002KT 26/10 A3023 RMK A01 T02640097  RH  035%=      5-min Rain = 0
KTAS 111724Z 26002KT 26/10 A3023 RMK A01 T02640097  RH  035%=      5-min Rain = 0
KTAS 111725Z 30002KT 26/10 A3023 RMK A01 T02640097  RH  035%=      5-min Rain = 0
KTAS 111726Z 30002KT 26/10 A3023 RMK A01 T02640098  RH  035%=      5-min Rain = 0
KTAS 111727Z 01000KT 27/10 A3023 RMK A01 T02670098  RH  035%=      5-min Rain = 0
KTAS 111728Z 21002KT 27/10 A3023 RMK A01 T02680098  RH  034%=      5-min Rain = 0
KTAS 111729Z 20003KT 27/10 A3023 RMK A01 T02680097  RH  034%=      5-min Rain = 0
KTAS 111730Z 21006KT 27/10 A3023 RMK A01 T02680097  RH  034%=      5-min Rain = 0
KTAS 111731Z 24005KT 26/10 A3023 RMK A01 T02640098  RH  035%=      5-min Rain = 0
KTAS 111732Z 25005KT 27/10 A3023 RMK A01 T02650097  RH  035%=      5-min Rain = 0
KTAS 111733Z 26004KT 27/10 A3023 RMK A01 T02660097  RH  035%=      5-min Rain = 0
KTAS 111734Z 31002KT 27/10 A3023 RMK A01 T02650095  RH  034%=      5-min Rain = 0
KTAS 111735Z 19002KT 27/10 A3023 RMK A01 T02650097  RH  035%=      5-min Rain = 0
KTAS 111736Z 18004KT 27/10 A3023 RMK A01 T02700097  RH  034%=      5-min Rain = 0
KTAS 111737Z 18002KT 27/10 A3022 RMK A01 T02720096  RH  033%=      5-min Rain = 0
KTAS 111738Z 23003KT 27/10 A3022 RMK A01 T02720097  RH  033%=      5-min Rain = 0
KTAS 111739Z 23006KT 27/10 A3022 RMK A01 T02710098  RH  034%=      5-min Rain = 0
KTAS 111740Z 23006KT 27/10 A3022 RMK A01 T02690097  RH  034%=      5-min Rain = 0
KTAS 111741Z 25004KT 27/10 A3022 RMK A01 T02680096  RH  034%=      5-min Rain = 0
KTAS 111742Z 29002KT 27/10 A3022 RMK A01 T02660095  RH  034%=      5-min Rain = 0
KTAS 111743Z 22002KT 26/10 A3022 RMK A01 T02640096  RH  035%=      5-min Rain = 0
KTAS 111744Z 24003KT 27/10 A3022 RMK A01 T02670097  RH  034%=      5-min Rain = 0
KTAS 111745Z 21003KT 27/10 A3022 RMK A01 T02690097  RH  034%=      5-min Rain = 0
KTAS 111746Z 19002KT 27/10 A3022 RMK A01 T02710097  RH  034%=      5-min Rain = 0
KTAS 111747Z 27004KT 27/10 A3022 RMK A01 T02730098  RH  033%=      5-min Rain = 0
KTAS 111748Z 31003KT 28/10 A3022 RMK A01 T02750099  RH  033%=      5-min Rain = 0
KTAS 111749Z 28003KT 28/10 A3022 RMK A01 T02760098  RH  033%=      5-min Rain = 0
KTAS 111750Z 28003KT 27/10 A3022 RMK A01 T02740098  RH  033%=      5-min Rain = 0
KTAS 111751Z 32003KT 27/10 A3022 RMK A01 T02720099  RH  034%=      5-min Rain = 0
KTAS 111752Z 33005KT 27/10 A3022 RMK A01 T02720100  RH  034%=      5-min Rain = 0
KTAS 111753Z 00007KT 28/10 A3022 RMK A01 T02750102  RH  034%=      5-min Rain = 0
KTAS 111754Z 35005KT 28/10 A3022 RMK A01 T02770098  RH  032%=      5-min Rain = 0
KTAS 111755Z 35005KT 28/09 A3022 RMK A01 T02750092  RH  032%=      5-min Rain = 0
KTAS 111756Z 34005KT 28/10 A3022 RMK A01 T02750096  RH  032%=      5-min Rain = 0
KTAS 111757Z 34004KT 28/09 A3022 RMK A01 T02750091  RH  032%=      5-min Rain = 0
KTAS 111758Z 35004KT 28/09 A3022 RMK A01 T02750092  RH  032%=      5-min Rain = 0
KTAS 111759Z 02006KT 28/10 A3022 RMK A01 T02760095  RH  032%=      5-min Rain = 0
KTAS 111800Z 02007KT 28/09 A3022 RMK A01 T02770094  RH  032%=      5-min Rain = 0
KTAS 111801Z 02006KT 28/09 A3022 RMK A01 T02760093  RH  032%=      5-min Rain = 0
KTAS 111802Z 03005KT 28/09 A3022 RMK A01 T02760093  RH  032%=      5-min Rain = 0
KTAS 111803Z 06003KT 27/09 A3022 RMK A01 T02740087  RH  031%=      5-min Rain = 0
KTAS 111804Z 00005KT 27/09 A3022 RMK A01 T02720092  RH  032%=      5-min Rain = 0
KTAS 111805Z 01005KT 27/09 A3022 RMK A01 T02720092  RH  032%=      5-min Rain = 0
KTAS 111806Z 01004KT 27/09 A3022 RMK A01 T02730093  RH  032%=      5-min Rain = 0
KTAS 111807Z 03004KT 28/09 A3021 RMK A01 T02750090  RH  031%=      5-min Rain = 0
KTAS 111808Z 01003KT 27/09 A3021 RMK A01 T02740090  RH  031%=      5-min Rain = 0
KTAS 111809Z 01003KT 27/09 A3021 RMK A01 T02720090  RH  032%=      5-min Rain = 0
KTAS 111810Z 03002KT 27/10 A3021 RMK A01 T02710095  RH  033%=      5-min Rain = 0
KTAS 111811Z 32003KT 28/10 A3021 RMK A01 T02750096  RH  033%=      5-min Rain = 0
KTAS 111812Z 33003KT 27/10 A3021 RMK A01 T02740097  RH  033%=      5-min Rain = 0
KTAS 111813Z 27004KT 28/10 A3021 RMK A01 T02760096  RH  032%=      5-min Rain = 0
KTAS 111814Z 29004KT 28/09 A3021 RMK A01 T02770094  RH  032%=      5-min Rain = 0
KTAS 111815Z 33005KT 28/09 A3021 RMK A01 T02760094  RH  032%=      5-min Rain = 0
KTAS 111816Z 35006KT 28/10 A3021 RMK A01 T02780096  RH  032%=      5-min Rain = 0
KTAS 111817Z 34006KT 28/10 A3021 RMK A01 T02810095  RH  031%=      5-min Rain = 0
KTAS 111818Z 32004KT 28/10 A3021 RMK A01 T02810096  RH  031%=      5-min Rain = 0
KTAS 111819Z 01005KT 28/10 A3021 RMK A01 T02800099  RH  032%=      5-min Rain = 0
KTAS 111820Z 02003KT 28/10 A3021 RMK A01 T02790097  RH  032%=      5-min Rain = 0
KTAS 111821Z 04002KT 28/10 A3021 RMK A01 T02760095  RH  032%=      5-min Rain = 0
KTAS 111822Z 02002KT 28/10 A3021 RMK A01 T02750097  RH  033%=      5-min Rain = 0
KTAS 111823Z 31001KT 28/10 A3021 RMK A01 T02770095  RH  032%=      5-min Rain = 0
KTAS 111824Z 31006KT 28/10 A3021 RMK A01 T02790096  RH  032%=      5-min Rain = 0
KTAS 111825Z 32007KT 28/10 A3021 RMK A01 T02800097  RH  032%=      5-min Rain = 0
KTAS 111826Z 32004KT 28/10 A3021 RMK A01 T02830095  RH  031%=      5-min Rain = 0
KTAS 111827Z 32006KT 28/09 A3021 RMK A01 T02840093  RH  030%=      5-min Rain = 0
KTAS 111828Z 32003KT 28/09 A3021 RMK A01 T02800091  RH  031%=      5-min Rain = 0
KTAS 111829Z 27003KT 28/09 A302 RMK A01 T02760090  RH  031%=      5-min Rain = 0
KTAS 111830Z 29003KT 28/09 A302 RMK A01 T02760092  RH  032%=      5-min Rain = 0
KTAS 111831Z 27004KT 28/09 A302 RMK A01 T02810094  RH  031%=      5-min Rain = 0
KTAS 111832Z 29002KT 29/09 A302 RMK A01 T02860094  RH  030%=      5-min Rain = 0
KTAS 111833Z 29001KT 29/09 A302 RMK A01 T02870089  RH  029%=      5-min Rain = 0
KTAS 111834Z 35002KT 28/09 A302 RMK A01 T02840085  RH  029%=      5-min Rain = 0
KTAS 111835Z 01003KT 28/09 A302 RMK A01 T02820090  RH  030%=      5-min Rain = 0
KTAS 111836Z 35003KT 28/09 A302 RMK A01 T02840090  RH  030%=      5-min Rain = 0
KTAS 111837Z 35005KT 28/09 A302 RMK A01 T02840090  RH  030%=      5-min Rain = 0
KTAS 111838Z 35003KT 28/09 A302 RMK A01 T02830090  RH  030%=      5-min Rain = 0
KTAS 111839Z 31001KT 28/09 A302 RMK A01 T02820088  RH  029%=      5-min Rain = 0
KTAS 111840Z 34005KT 28/09 A302 RMK A01 T02840092  RH  030%=      5-min Rain = 0
KTAS 111841Z 35007KT 28/09 A302 RMK A01 T02830091  RH  030%=      5-min Rain = 0
KTAS 111842Z 33005KT 28/09 A302 RMK A01 T02820091  RH  030%=      5-min Rain = 0
KTAS 111843Z 36007KT 28/09 A302 RMK A01 T02800092  RH  031%=      5-min Rain = 0
KTAS 111844Z 35007KT 28/10 A302 RMK A01 T02830095  RH  031%=      5-min Rain = 0
KTAS 111845Z 34007KT 28/09 A302 RMK A01 T02830093  RH  030%=      5-min Rain = 0
KTAS 111846Z 32006KT 28/09 A302 RMK A01 T02810094  RH  031%=      5-min Rain = 0
KTAS 111847Z 31005KT 28/09 A302 RMK A01 T02810094  RH  031%=      5-min Rain = 0
KTAS 111848Z 27002KT 28/09 A302 RMK A01 T02780091  RH  031%=      5-min Rain = 0
KTAS 111849Z 25002KT 28/09 A302 RMK A01 T02780091  RH  031%=      5-min Rain = 0
KTAS 111850Z 28005KT 28/09 A302 RMK A01 T02800094  RH  031%=      5-min Rain = 0
KTAS 111851Z 26004KT 28/09 A302 RMK A01 T02800092  RH  031%=      5-min Rain = 0
KTAS 111852Z 23003KT 28/09 A302 RMK A01 T02790093  RH  031%=      5-min Rain = 0
KTAS 111853Z 22004KT 28/10 A3019 RMK A01 T02780095  RH  032%=      5-min Rain = 0
KTAS 111854Z 27002KT 28/09 A3019 RMK A01 T02800093  RH  031%=      5-min Rain = 0
KTAS 111855Z 32003G8KT 28/10 A3019 RMK A01 T02810096  RH  031%=      5-min Rain = 0
KTAS 111856Z 32008KT 28/09 A3019 RMK A01 T02840094  RH  030%=      5-min Rain = 0
KTAS 111857Z 31006KT 28/09 A3019 RMK A01 T02840092  RH  030%=      5-min Rain = 0
KTAS 111858Z 33005KT 28/09 A3019 RMK A01 T02820092  RH  031%=      5-min Rain = 0
KTAS 111859Z 35006KT 28/10 A3019 RMK A01 T02830095  RH  031%=      5-min Rain = 0
KTAS 111900Z 00003KT 28/09 A3019 RMK A01 T02810092  RH  030%=      5-min Rain = 0
KTAS 111901Z 03002KT 28/09 A3019 RMK A01 T02800091  RH  031%=      5-min Rain = 0
KTAS 111902Z 33006KT 28/09 A3019 RMK A01 T02820093  RH  031%=      5-min Rain = 0
KTAS 111903Z 34006KT 28/09 A3019 RMK A01 T02840093  RH  030%=      5-min Rain = 0
KTAS 111904Z 36002KT 28/09 A3019 RMK A01 T02840093  RH  030%=      5-min Rain = 0
KTAS 111905Z 33007KT 29/09 A3019 RMK A01 T02860094  RH  030%=      5-min Rain = 0
KTAS 111906Z 34006KT 29/09 A3019 RMK A01 T02860092  RH  030%=      5-min Rain = 0
KTAS 111907Z 36006KT 29/09 A3019 RMK A01 T02850094  RH  030%=      5-min Rain = 0
KTAS 111908Z 35005KT 29/09 A3019 RMK A01 T02870091  RH  029%=      5-min Rain = 0
KTAS 111909Z 01004KT 28/09 A3019 RMK A01 T02840090  RH  030%=      5-min Rain = 0
KTAS 111910Z 32002KT 29/09 A3019 RMK A01 T02870094  RH  030%=      5-min Rain = 0
KTAS 111911Z 30006KT 29/09 A3019 RMK A01 T02880093  RH  030%=      5-min Rain = 0
KTAS 111912Z 31004KT 29/09 A3019 RMK A01 T02880093  RH  030%=      5-min Rain = 0
KTAS 111913Z 28003KT 29/09 A3019 RMK A01 T02860093  RH  030%=      5-min Rain = 0
KTAS 111914Z 28006KT 29/09 A3019 RMK A01 T02890094  RH  030%=      5-min Rain = 0
KTAS 111915Z 25003KT 29/09 A3019 RMK A01 T02870092  RH  029%=      5-min Rain = 0
KTAS 111916Z 25002KT 29/09 A3019 RMK A01 T02870090  RH  029%=      5-min Rain = 0
KTAS 111917Z 30004KT 29/09 A3018 RMK A01 T02870093  RH  030%=      5-min Rain = 0
KTAS 111918Z 31004KT 29/10 A3018 RMK A01 T02910095  RH  030%=      5-min Rain = 0
KTAS 111919Z 33005KT 29/09 A3018 RMK A01 T02910094  RH  029%=      5-min Rain = 0
KTAS 111920Z 33005KT 29/09 A3018 RMK A01 T02880093  RH  030%=      5-min Rain = 0
KTAS 111921Z 32006KT 29/09 A3018 RMK A01 T02890094  RH  030%=      5-min Rain = 0
KTAS 111922Z 32006KT 29/09 A3018 RMK A01 T02890093  RH  029%=      5-min Rain = 0
KTAS 111923Z 30003KT 29/09 A3018 RMK A01 T02890092  RH  029%=      5-min Rain = 0
KTAS 111924Z 31006KT 29/09 A3018 RMK A01 T02890094  RH  030%=      5-min Rain = 0
KTAS 111925Z 31008KT 29/09 A3018 RMK A01 T02900094  RH  029%=      5-min Rain = 0
KTAS 111926Z 31008KT 29/10 A3018 RMK A01 T02900096  RH  030%=      5-min Rain = 0
KTAS 111927Z 31007KT 29/10 A3018 RMK A01 T02930096  RH  029%=      5-min Rain = 0
KTAS 111928Z 01008KT 29/10 A3018 RMK A01 T02940099  RH  030%=      5-min Rain = 0
KTAS 111929Z 00005KT 29/09 A3018 RMK A01 T02940093  RH  029%=      5-min Rain = 0
KTAS 111930Z 36004KT 29/09 A3018 RMK A01 T02900093  RH  029%=      5-min Rain = 0
KTAS 111931Z 33001KT 29/09 A3018 RMK A01 T02870092  RH  029%=      5-min Rain = 0
KTAS 111932Z 31000KT 29/09 A3018 RMK A01 T02870091  RH  029%=      5-min Rain = 0
KTAS 111933Z 05001KT 29/09 A3018 RMK A01 T02870091  RH  029%=      5-min Rain = 0
KTAS 111934Z 32004KT 29/09 A3018 RMK A01 T02890094  RH  030%=      5-min Rain = 0
KTAS 111935Z 35003KT 29/10 A3018 RMK A01 T02920095  RH  029%=      5-min Rain = 0
KTAS 111936Z 36002KT 29/09 A3018 RMK A01 T02930093  RH  029%=      5-min Rain = 0
KTAS 111937Z 04006KT 29/10 A3018 RMK A01 T02940095  RH  029%=      5-min Rain = 0
KTAS 111938Z 07002KT 30/09 A3018 RMK A01 T02980094  RH  028%=      5-min Rain = 0
KTAS 111939Z 06004KT 30/09 A3017 RMK A01 T02980090  RH  027%=      5-min Rain = 0
KTAS 111940Z 01005KT 30/09 A3017 RMK A01 T02950091  RH  028%=      5-min Rain = 0
KTAS 111941Z 31004KT 29/10 A3017 RMK A01 T02940095  RH  029%=      5-min Rain = 0
KTAS 111942Z 31003KT 30/10 A3017 RMK A01 T02960099  RH  029%=      5-min Rain = 0
KTAS 111943Z 33005KT 30/10 A3017 RMK A01 T02990097  RH  029%=      5-min Rain = 0
KTAS 111944Z 32007KT 30/10 A3017 RMK A01 T03000096  RH  028%=      5-min Rain = 0
KTAS 111945Z 35006KT 30/10 A3017 RMK A01 T02970095  RH  028%=      5-min Rain = 0
KTAS 111946Z 00005KT 30/10 A3017 RMK A01 T02950097  RH  029%=      5-min Rain = 0
KTAS 111947Z 00003KT 30/10 A3017 RMK A01 T02970096  RH  029%=      5-min Rain = 0
KTAS 111948Z 06001KT 30/09 A3017 RMK A01 T02970094  RH  028%=      5-min Rain = 0
KTAS 111949Z 34002KT 30/09 A3017 RMK A01 T02950093  RH  028%=      5-min Rain = 0
KTAS 111950Z 31005KT 30/09 A3017 RMK A01 T02950094  RH  029%=      5-min Rain = 0
KTAS 111951Z 33003KT 30/10 A3017 RMK A01 T02960096  RH  029%=      5-min Rain = 0
KTAS 111952Z 35006KT 30/09 A3017 RMK A01 T02980094  RH  028%=      5-min Rain = 0
KTAS 111953Z 35007KT 30/09 A3017 RMK A01 T02960093  RH  028%=      5-min Rain = 0
KTAS 111954Z 01007KT 30/09 A3017 RMK A01 T02980094  RH  028%=      5-min Rain = 0
KTAS 111955Z 35005KT 30/10 A3017 RMK A01 T02980095  RH  028%=      5-min Rain = 0
KTAS 111956Z 33005KT 30/10 A3017 RMK A01 T02990096  RH  028%=      5-min Rain = 0
KTAS 111957Z 32004KT 30/10 A3017 RMK A01 T03010095  RH  028%=      5-min Rain = 0
KTAS 111958Z 06002KT 30/10 A3017 RMK A01 T03030095  RH  027%=      5-min Rain = 0
KTAS 111959Z 09003KT 30/09 A3017 RMK A01 T03030091  RH  027%=      5-min Rain = 0
KTAS 112000Z 09003KT 30/09 A3017 RMK A01 T03010089  RH  027%=      5-min Rain = 0
KTAS 112001Z 01001KT 30/09 A3017 RMK A01 T02980089  RH  027%=      5-min Rain = 0
KTAS 112002Z 36001KT 30/09 A3017 RMK A01 T02990090  RH  027%=      5-min Rain = 0
KTAS 112003Z 29000KT 30/09 A3016 RMK A01 T02990089  RH  027%=      5-min Rain = 0
KTAS 112004Z 15004KT 30/09 A3016 RMK A01 T03000088  RH  027%=      5-min Rain = 0
KTAS 112005Z 09004KT 30/09 A3016 RMK A01 T02970088  RH  027%=      5-min Rain = 0
KTAS 112006Z 04003KT 30/09 A3016 RMK A01 T02950090  RH  028%=      5-min Rain = 0
KTAS 112007Z 03007KT 30/09 A3016 RMK A01 T02980094  RH  028%=      5-min Rain = 0
KTAS 112008Z 01006KT 30/09 A3016 RMK A01 T03000094  RH  028%=      5-min Rain = 0
KTAS 112009Z 03010KT 30/10 A3016 RMK A01 T03040096  RH  027%=      5-min Rain = 0
KTAS 112010Z 03010KT 30/09 A3016 RMK A01 T03040093  RH  027%=      5-min Rain = 0
KTAS 112011Z 04009KT 30/09 A3016 RMK A01 T03010092  RH  027%=      5-min Rain = 0
KTAS 112012Z 04010KT 30/09 A3016 RMK A01 T03010094  RH  027%=      5-min Rain = 0
KTAS 112013Z 03008KT 30/09 A3016 RMK A01 T03030092  RH  027%=      5-min Rain = 0
KTAS 112014Z 03005KT 30/09 A3016 RMK A01 T03000091  RH  027%=      5-min Rain = 0
KTAS 112015Z 03004KT 30/09 A3016 RMK A01 T02970087  RH  027%=      5-min Rain = 0
KTAS 112016Z 36002KT 29/09 A3016 RMK A01 T02920086  RH  028%=      5-min Rain = 0
KTAS 112017Z 03004KT 29/09 A3016 RMK A01 T02940092  RH  028%=      5-min Rain = 0
KTAS 112018Z 08001KT 30/09 A3016 RMK A01 T02980088  RH  027%=      5-min Rain = 0
KTAS 112019Z 11001KT 30/09 A3016 RMK A01 T02970090  RH  027%=      5-min Rain = 0
KTAS 112020Z 26000KT 30/09 A3016 RMK A01 T02970089  RH  027%=      5-min Rain = 0
KTAS 112021Z 20002KT 30/09 A3016 RMK A01 T02950089  RH  028%=      5-min Rain = 0
KTAS 112022Z 17004KT 30/09 A3015 RMK A01 T02960091  RH  028%=      5-min Rain = 0
KTAS 112023Z 15005KT 30/09 A3015 RMK A01 T03000090  RH  027%=      5-min Rain = 0
KTAS 112024Z 15007KT 30/09 A3015 RMK A01 T03020092  RH  027%=      5-min Rain = 0
KTAS 112025Z 15004KT 30/09 A3015 RMK A01 T03030090  RH  027%=      5-min Rain = 0
KTAS 112026Z 13003KT 30/09 A3015 RMK A01 T03020091  RH  027%=      5-min Rain = 0
KTAS 112027Z 17004KT 30/09 A3015 RMK A01 T03010090  RH  027%=      5-min Rain = 0
KTAS 112028Z 17004KT 30/09 A3015 RMK A01 T03000091  RH  027%=      5-min Rain = 0
KTAS 112029Z 12003KT 30/09 A3015 RMK A01 T03010090  RH  027%=      5-min Rain = 0
KTAS 112030Z 09002KT 30/09 A3015 RMK A01 T02990090  RH  027%=      5-min Rain = 0
KTAS 112031Z 10002KT 30/09 A3015 RMK A01 T02970090  RH  027%=      5-min Rain = 0
KTAS 112032Z 04001KT 30/09 A3015 RMK A01 T02960091  RH  028%=      5-min Rain = 0
KTAS 112033Z 03003KT 30/09 A3015 RMK A01 T02980093  RH  028%=      5-min Rain = 0
KTAS 112034Z 03004KT 30/09 A3015 RMK A01 T03000093  RH  028%=      5-min Rain = 0
KTAS 112035Z 02005KT 30/09 A3015 RMK A01 T03000093  RH  028%=      5-min Rain = 0
KTAS 112036Z 07006KT 30/09 A3015 RMK A01 T03030093  RH  027%=      5-min Rain = 0
KTAS 112037Z 09006G11KT 31/09 A3015 RMK A01 T03050093  RH  027%=      5-min Rain = 0
KTAS 112038Z 09010KT 31/09 A3014 RMK A01 T03050090  RH  026%=      5-min Rain = 0
KTAS 112039Z 10008KT 30/09 A3015 RMK A01 T03030089  RH  026%=      5-min Rain = 0
KTAS 112040Z 11007KT 30/09 A3015 RMK A01 T02990089  RH  027%=      5-min Rain = 0
KTAS 112041Z 12007KT 30/09 A3015 RMK A01 T02980088  RH  027%=      5-min Rain = 0
KTAS 112042Z 12007KT 30/09 A3015 RMK A01 T02970090  RH  027%=      5-min Rain = 0
KTAS 112043Z 13008KT 30/09 A3014 RMK A01 T03000090  RH  027%=      5-min Rain = 0
KTAS 112044Z 14007KT 30/09 A3014 RMK A01 T03020088  RH  026%=      5-min Rain = 0
KTAS 112045Z 13006KT 30/09 A3014 RMK A01 T03010089  RH  027%=      5-min Rain = 0
KTAS 112046Z 13004KT 30/09 A3014 RMK A01 T03000087  RH  027%=      5-min Rain = 0
KTAS 112047Z 12005KT 30/09 A3014 RMK A01 T03000089  RH  027%=      5-min Rain = 0
KTAS 112048Z 12007KT 30/09 A3014 RMK A01 T03010088  RH  026%=      5-min Rain = 0
KTAS 112049Z 13006KT 30/09 A3014 RMK A01 T03030088  RH  026%=      5-min Rain = 0
KTAS 112050Z 08003KT 30/09 A3014 RMK A01 T03030091  RH  027%=      5-min Rain = 0
KTAS 112051Z 07007KT 31/09 A3014 RMK A01 T03070092  RH  026%=      5-min Rain = 0
KTAS 112052Z 04005KT 31/09 A3014 RMK A01 T03110093  RH  026%=      5-min Rain = 0
KTAS 112053Z 07005KT 31/09 A3014 RMK A01 T03110088  RH  025%=      5-min Rain = 0
KTAS 112054Z 08006KT 31/09 A3014 RMK A01 T03080090  RH  026%=      5-min Rain = 0
KTAS 112055Z 08004KT 31/09 A3014 RMK A01 T03060087  RH  026%=      5-min Rain = 0
KTAS 112056Z 06004KT 30/09 A3014 RMK A01 T03010088  RH  027%=      5-min Rain = 0
KTAS 112057Z 08008KT 30/09 A3014 RMK A01 T03040093  RH  027%=      5-min Rain = 0
KTAS 112058Z 04007KT 31/09 A3014 RMK A01 T03080092  RH  026%=      5-min Rain = 0
KTAS 112059Z 02004KT 31/09 A3014 RMK A01 T03050089  RH  026%=      5-min Rain = 0
KTAS 112100Z 07004KT 31/09 A3014 RMK A01 T03050091  RH  027%=      5-min Rain = 0
KTAS 112101Z 06003KT 31/09 A3014 RMK A01 T03060089  RH  026%=      5-min Rain = 0
KTAS 112102Z 05006KT 31/09 A3014 RMK A01 T03050091  RH  026%=      5-min Rain = 0
KTAS 112103Z 06007KT 30/09 A3014 RMK A01 T03040090  RH  027%=      5-min Rain = 0
KTAS 112104Z 06006KT 31/09 A3014 RMK A01 T03050090  RH  026%=      5-min Rain = 0
KTAS 112105Z 05005KT 30/09 A3014 RMK A01 T03030090  RH  027%=      5-min Rain = 0
KTAS 112106Z 07006KT 30/09 A3014 RMK A01 T03020088  RH  026%=      5-min Rain = 0
KTAS 112107Z 08006KT 30/09 A3014 RMK A01 T03020090  RH  027%=      5-min Rain = 0
KTAS 112108Z 07007KT 30/09 A3014 RMK A01 T03040089  RH  026%=      5-min Rain = 0
KTAS 112109Z 06005KT 30/09 A3014 RMK A01 T02990088  RH  027%=      5-min Rain = 0
KTAS 112110Z 06007KT 30/09 A3013 RMK A01 T03010094  RH  028%=      5-min Rain = 0
KTAS 112111Z 05008KT 30/09 A3013 RMK A01 T03030092  RH  027%=      5-min Rain = 0
KTAS 112112Z 06007KT 30/09 A3013 RMK A01 T03020091  RH  027%=      5-min Rain = 0
KTAS 112113Z 07006KT 30/09 A3013 RMK A01 T02990089  RH  027%=      5-min Rain = 0
KTAS 112114Z 07005KT 30/09 A3013 RMK A01 T02970091  RH  028%=      5-min Rain = 0
KTAS 112115Z 07005KT 30/09 A3013 RMK A01 T02980092  RH  028%=      5-min Rain = 0
KTAS 112116Z 06004KT 30/09 A3013 RMK A01 T02980090  RH  028%=      5-min Rain = 0
KTAS 112117Z 05004KT 30/09 A3013 RMK A01 T02980092  RH  028%=      5-min Rain = 0
KTAS 112118Z 35005KT 30/09 A3013 RMK A01 T02990089  RH  027%=      5-min Rain = 0
KTAS 112119Z 34003KT 30/09 A3013 RMK A01 T02980091  RH  028%=      5-min Rain = 0
KTAS 112120Z 33004KT 30/09 A3013 RMK A01 T02980089  RH  027%=      5-min Rain = 0
KTAS 112121Z 33004KT 30/09 A3013 RMK A01 T02980090  RH  027%=      5-min Rain = 0
KTAS 112122Z 33002KT 30/09 A3013 RMK A01 T02960087  RH  027%=      5-min Rain = 0
KTAS 112123Z 05002KT 30/09 A3013 RMK A01 T02950088  RH  028%=      5-min Rain = 0
KTAS 112124Z 11001KT 30/09 A3013 RMK A01 T02960090  RH  028%=      5-min Rain = 0
KTAS 112125Z 13003KT 30/09 A3013 RMK A01 T02990090  RH  027%=      5-min Rain = 0
KTAS 112126Z 14002KT 30/09 A3013 RMK A01 T03010091  RH  027%=      5-min Rain = 0
KTAS 112127Z 10002KT 30/09 A3013 RMK A01 T03040090  RH  026%=      5-min Rain = 0
KTAS 112128Z 10003KT 30/09 A3013 RMK A01 T03030090  RH  027%=      5-min Rain = 0
KTAS 112129Z 10003KT 30/09 A3013 RMK A01 T03030090  RH  027%=      5-min Rain = 0
KTAS 112130Z 08005KT 30/09 A3013 RMK A01 T03040093  RH  027%=      5-min Rain = 0
KTAS 112131Z 06007KT 31/09 A3013 RMK A01 T03050091  RH  026%=      5-min Rain = 0
KTAS 112132Z 05006KT 30/09 A3013 RMK A01 T03040089  RH  026%=      5-min Rain = 0
KTAS 112133Z 04005KT 30/09 A3012 RMK A01 T03010089  RH  027%=      5-min Rain = 0
KTAS 112134Z 02005KT 30/09 A3012 RMK A01 T03010092  RH  027%=      5-min Rain = 0
KTAS 112135Z 04003KT 30/09 A3012 RMK A01 T03040091  RH  027%=      5-min Rain = 0
KTAS 112136Z 03003KT 30/09 A3012 RMK A01 T03030091  RH  027%=      5-min Rain = 0
KTAS 112137Z 04006KT 30/09 A3012 RMK A01 T03040091  RH  027%=      5-min Rain = 0
KTAS 112138Z 06006KT 30/09 A3012 RMK A01 T03020088  RH  026%=      5-min Rain = 0
KTAS 112139Z 07006KT 30/09 A3012 RMK A01 T03000089  RH  027%=      5-min Rain = 0
KTAS 112140Z 03006KT 30/09 A3012 RMK A01 T03000091  RH  027%=      5-min Rain = 0
KTAS 112141Z 01008KT 30/09 A3012 RMK A01 T03010090  RH  027%=      5-min Rain = 0
KTAS 112142Z 02005KT 30/09 A3012 RMK A01 T02980086  RH  027%=      5-min Rain = 0
KTAS 112143Z 02003KT 30/09 A3012 RMK A01 T02960090  RH  028%=      5-min Rain = 0
KTAS 112144Z 02001KT 30/09 A3012 RMK A01 T02980089  RH  027%=      5-min Rain = 0
KTAS 112145Z 35003KT 30/09 A3012 RMK A01 T03010092  RH  027%=      5-min Rain = 0
KTAS 112146Z 34004KT 30/09 A3012 RMK A01 T03030092  RH  027%=      5-min Rain = 0
KTAS 112147Z 33004KT 30/09 A3012 RMK A01 T03040090  RH  026%=      5-min Rain = 0
KTAS 112148Z 34003KT 30/09 A3012 RMK A01 T03030089  RH  026%=      5-min Rain = 0
KTAS 112149Z 06006KT 30/09 A3012 RMK A01 T03030088  RH  026%=      5-min Rain = 0
KTAS 112150Z 08006KT 30/09 A3012 RMK A01 T03030087  RH  026%=      5-min Rain = 0
KTAS 112151Z 05006KT 30/09 A3012 RMK A01 T03030088  RH  026%=      5-min Rain = 0
KTAS 112152Z 05005KT 30/09 A3012 RMK A01 T03030088  RH  026%=      5-min Rain = 0
KTAS 112153Z 05007KT 30/09 A3012 RMK A01 T03010089  RH  027%=      5-min Rain = 0
KTAS 112154Z 06006KT 30/09 A3012 RMK A01 T03020087  RH  026%=      5-min Rain = 0
KTAS 112155Z 05005KT 30/09 A3012 RMK A01 T03000088  RH  027%=      5-min Rain = 0
KTAS 112156Z 04006KT 30/09 A3012 RMK A01 T03020092  RH  027%=      5-min Rain = 0
KTAS 112157Z 05007KT 30/09 A3012 RMK A01 T03040089  RH  026%=      5-min Rain = 0
KTAS 112158Z 05007KT 30/09 A3012 RMK A01 T03030088  RH  026%=      5-min Rain = 0
KTAS 112159Z 03007KT 30/09 A3012 RMK A01 T03020090  RH  027%=      5-min Rain = 0
KTAS 112200Z 05007KT 30/09 A3012 RMK A01 T03040090  RH  026%=      5-min Rain = 0
KTAS 112201Z 04006KT 30/09 A3012 RMK A01 T03030088  RH  026%=      5-min Rain = 0
KTAS 112202Z 05005KT 30/09 A3012 RMK A01 T02990086  RH  026%=      5-min Rain = 0
KTAS 112203Z 05004KT 30/09 A3012 RMK A01 T02970085  RH  026%=      5-min Rain = 0
KTAS 112204Z 08001KT 30/08 A3012 RMK A01 T02960084  RH  026%=      5-min Rain = 0
KTAS 112205Z 22001KT 30/08 A3011 RMK A01 T02960084  RH  027%=      5-min Rain = 0
KTAS 112206Z 32001KT 30/09 A3011 RMK A01 T02980087  RH  027%=      5-min Rain = 0
KTAS 112207Z 10003KT 30/09 A3011 RMK A01 T03020086  RH  026%=      5-min Rain = 0
KTAS 112208Z 07006KT 30/09 A3011 RMK A01 T03020088  RH  026%=      5-min Rain = 0
KTAS 112209Z 11005KT 30/09 A3011 RMK A01 T03020089  RH  027%=      5-min Rain = 0
KTAS 112210Z 13006KT 30/09 A3011 RMK A01 T03020087  RH  026%=      5-min Rain = 0
KTAS 112211Z 12004KT 30/09 A3011 RMK A01 T03020088  RH  026%=      5-min Rain = 0
KTAS 112212Z 08004KT 30/09 A3011 RMK A01 T03020088  RH  026%=      5-min Rain = 0
KTAS 112213Z 09006KT 30/09 A3011 RMK A01 T02990088  RH  027%=      5-min Rain = 0
KTAS 112214Z 08006KT 30/09 A3011 RMK A01 T02990090  RH  027%=      5-min Rain = 0
KTAS 112215Z 06005KT 30/09 A3011 RMK A01 T03000088  RH  027%=      5-min Rain = 0
KTAS 112216Z 07004KT 30/09 A3011 RMK A01 T03010092  RH  027%=      5-min Rain = 0
KTAS 112217Z 06005KT 30/09 A3011 RMK A01 T03030090  RH  026%=      5-min Rain = 0
KTAS 112218Z 08004KT 30/09 A3011 RMK A01 T03020088  RH  026%=      5-min Rain = 0
KTAS 112219Z 13003KT 30/09 A3011 RMK A01 T03010087  RH  026%=      5-min Rain = 0
KTAS 112220Z 14002KT 30/09 A3011 RMK A01 T03010087  RH  026%=      5-min Rain = 0
KTAS 112221Z 14004KT 30/09 A3011 RMK A01 T03030090  RH  027%=      5-min Rain = 0
KTAS 112222Z 09007KT 30/09 A3011 RMK A01 T03040091  RH  027%=      5-min Rain = 0
KTAS 112223Z 10006KT 30/09 A3011 RMK A01 T03040091  RH  027%=      5-min Rain = 0
KTAS 112224Z 11003KT 30/09 A3011 RMK A01 T03020090  RH  027%=      5-min Rain = 0
KTAS 112225Z 06004KT 30/09 A3011 RMK A01 T03010091  RH  027%=      5-min Rain = 0
KTAS 112226Z 04003KT 30/10 A3011 RMK A01 T03020095  RH  028%=      5-min Rain = 0
KTAS 112227Z 03005KT 30/09 A3011 RMK A01 T03030091  RH  027%=      5-min Rain = 0
KTAS 112228Z 01005KT 30/09 A3011 RMK A01 T03010092  RH  027%=      5-min Rain = 0
KTAS 112229Z 04004KT 30/09 A3011 RMK A01 T03020093  RH  027%=      5-min Rain = 0
KTAS 112230Z 01006KT 30/09 A3011 RMK A01 T03030093  RH  027%=      5-min Rain = 0
KTAS 112231Z 01006KT 30/09 A3011 RMK A01 T03030092  RH  027%=      5-min Rain = 0
KTAS 112232Z 03007KT 30/09 A3011 RMK A01 T03040093  RH  027%=      5-min Rain = 0
KTAS 112233Z 03006KT 30/09 A3011 RMK A01 T03040092  RH  027%=      5-min Rain = 0
KTAS 112234Z 03006KT 30/09 A3011 RMK A01 T03020090  RH  027%=      5-min Rain = 0
KTAS 112235Z 05006KT 30/09 A3011 RMK A01 T03000091  RH  027%=      5-min Rain = 0
KTAS 112236Z 05004KT 30/09 A3011 RMK A01 T03000088  RH  027%=      5-min Rain = 0
KTAS 112237Z 04002KT 30/09 A3011 RMK A01 T02970087  RH  027%=      5-min Rain = 0
KTAS 112238Z 04002KT 30/09 A3011 RMK A01 T02980088  RH  027%=      5-min Rain = 0
KTAS 112239Z 05002KT 30/09 A3011 RMK A01 T02990091  RH  027%=      5-min Rain = 0
KTAS 112240Z 04004KT 30/09 A3011 RMK A01 T03010091  RH  027%=      5-min Rain = 0
KTAS 112241Z 06004KT 30/09 A3011 RMK A01 T03000089  RH  027%=      5-min Rain = 0
KTAS 112242Z 09003KT 30/09 A3011 RMK A01 T02990088  RH  027%=      5-min Rain = 0
KTAS 112243Z 10003KT 30/09 A3011 RMK A01 T02980089  RH  027%=      5-min Rain = 0
KTAS 112244Z 09003KT 30/09 A3011 RMK A01 T02990090  RH  027%=      5-min Rain = 0
KTAS 112245Z 06004KT 30/09 A3011 RMK A01 T03000089  RH  027%=      5-min Rain = 0
KTAS 112246Z 05003KT 30/09 A3011 RMK A01 T03000091  RH  027%=      5-min Rain = 0
KTAS 112247Z 04004KT 30/09 A3011 RMK A01 T03000093  RH  028%=      5-min Rain = 0
KTAS 112248Z 03004KT 30/09 A3011 RMK A01 T03000092  RH  027%=      5-min Rain = 0
KTAS 112249Z 03003KT 30/09 A3011 RMK A01 T03000094  RH  028%=      5-min Rain = 0
KTAS 112250Z 06004KT 30/09 A3011 RMK A01 T03010093  RH  027%=      5-min Rain = 0
KTAS 112251Z 08004KT 30/09 A3011 RMK A01 T03010093  RH  027%=      5-min Rain = 0
KTAS 112252Z 06004KT 30/09 A3011 RMK A01 T03010091  RH  027%=      5-min Rain = 0
KTAS 112253Z 05005KT 30/09 A3011 RMK A01 T03000091  RH  027%=      5-min Rain = 0
KTAS 112254Z 05003KT 30/09 A3011 RMK A01 T02980090  RH  027%=      5-min Rain = 0
KTAS 112255Z 06002KT 30/09 A3011 RMK A01 T02980091  RH  028%=      5-min Rain = 0
KTAS 112256Z 03002KT 30/09 A3011 RMK A01 T02990091  RH  027%=      5-min Rain = 0
KTAS 112257Z 04002KT 30/09 A3011 RMK A01 T02990093  RH  028%=      5-min Rain = 0
KTAS 112258Z 06005KT 30/09 A3011 RMK A01 T03000094  RH  028%=      5-min Rain = 0
KTAS 112259Z 06005KT 30/10 A3011 RMK A01 T03010095  RH  028%=      5-min Rain = 0
KTAS 112300Z 07005KT 30/10 A3011 RMK A01 T03020096  RH  028%=      5-min Rain = 0
KTAS 112301Z 07005KT 30/10 A3011 RMK A01 T03020095  RH  028%=      5-min Rain = 0
KTAS 112302Z 07005KT 30/09 A3011 RMK A01 T03010094  RH  028%=      5-min Rain = 0
KTAS 112303Z 08005KT 30/09 A3011 RMK A01 T02980092  RH  028%=      5-min Rain = 0
KTAS 112304Z 07004KT 30/09 A3011 RMK A01 T02970093  RH  028%=      5-min Rain = 0
KTAS 112305Z 07001KT 30/09 A3011 RMK A01 T02970090  RH  028%=      5-min Rain = 0
KTAS 112306Z 04002KT 30/09 A3011 RMK A01 T02960090  RH  028%=      5-min Rain = 0
KTAS 112307Z 10002KT 30/09 A3011 RMK A01 T02960092  RH  028%=      5-min Rain = 0
KTAS 112308Z 08003KT 30/09 A3011 RMK A01 T02980092  RH  028%=      5-min Rain = 0
KTAS 112309Z 06003KT 30/09 A3011 RMK A01 T02980092  RH  028%=      5-min Rain = 0
KTAS 112310Z 05004KT 30/09 A3011 RMK A01 T02980094  RH  028%=      5-min Rain = 0
KTAS 112311Z 03003KT 30/10 A3011 RMK A01 T02980095  RH  028%=      5-min Rain = 0
KTAS 112312Z 02005KT 30/10 A3011 RMK A01 T02980098  RH  029%=      5-min Rain = 0
KTAS 112313Z 35004KT 30/10 A3011 RMK A01 T02980101  RH  029%=      5-min Rain = 0
KTAS 112314Z 00002KT 30/10 A3011 RMK A01 T02970100  RH  029%=      5-min Rain = 0
KTAS 112315Z 02001KT 30/10 A3011 RMK A01 T02980100  RH  029%=      5-min Rain = 0
KTAS 112316Z 06000KT 30/10 A3011 RMK A01 T02980098  RH  029%=      5-min Rain = 0
KTAS 112317Z 06002KT 30/10 A3011 RMK A01 T02980099  RH  029%=      5-min Rain = 0
KTAS 112318Z 07002KT 30/10 A3011 RMK A01 T02980095  RH  028%=      5-min Rain = 0
KTAS 112319Z 07002KT 30/09 A3011 RMK A01 T02980093  RH  028%=      5-min Rain = 0
KTAS 112320Z 04005KT 30/09 A3011 RMK A01 T02980093  RH  028%=      5-min Rain = 0
KTAS 112321Z 05003KT 30/09 A3011 RMK A01 T02970089  RH  027%=      5-min Rain = 0
KTAS 112322Z 06002KT 30/09 A3011 RMK A01 T02960091  RH  028%=      5-min Rain = 0
KTAS 112323Z 01002KT 30/09 A3011 RMK A01 T02960093  RH  028%=      5-min Rain = 0
KTAS 112324Z 07002KT 30/09 A3011 RMK A01 T02970093  RH  028%=      5-min Rain = 0
KTAS 112325Z 07002KT 30/09 A3011 RMK A01 T02980093  RH  028%=      5-min Rain = 0
KTAS 112326Z 06003KT 30/09 A3011 RMK A01 T02980092  RH  028%=      5-min Rain = 0
KTAS 112327Z 09003KT 30/09 A3011 RMK A01 T02970090  RH  028%=      5-min Rain = 0
KTAS 112328Z 05005KT 30/09 A3011 RMK A01 T02960092  RH  028%=      5-min Rain = 0
KTAS 112329Z 05006KT 30/09 A3011 RMK A01 T02960092  RH  028%=      5-min Rain = 0
KTAS 112330Z 06007KT 30/10 A3011 RMK A01 T02950096  RH  029%=      5-min Rain = 0
KTAS 112331Z 03007KT 30/10 A3011 RMK A01 T02950099  RH  030%=      5-min Rain = 0
KTAS 112332Z 02008KT 29/10 A3011 RMK A01 T02940098  RH  030%=      5-min Rain = 0
KTAS 112333Z 02007KT 29/10 A3011 RMK A01 T02930097  RH  029%=      5-min Rain = 0
KTAS 112334Z 01006KT 29/10 A3011 RMK A01 T02940098  RH  030%=      5-min Rain = 0
KTAS 112335Z 00004KT 29/10 A3011 RMK A01 T02930095  RH  029%=      5-min Rain = 0
KTAS 112336Z 01003KT 29/10 A3011 RMK A01 T02930095  RH  029%=      5-min Rain = 0
KTAS 112337Z 02003KT 29/10 A3011 RMK A01 T02930097  RH  030%=      5-min Rain = 0
KTAS 112338Z 02004KT 29/10 A3011 RMK A01 T02930097  RH  029%=      5-min Rain = 0
KTAS 112339Z 02004KT 29/10 A3011 RMK A01 T02930096  RH  029%=      5-min Rain = 0
KTAS 112340Z 02006KT 29/09 A3011 RMK A01 T02920094  RH  029%=      5-min Rain = 0
KTAS 112341Z 04005KT 29/09 A3011 RMK A01 T02920093  RH  029%=      5-min Rain = 0
KTAS 112342Z 02004KT 29/09 A3011 RMK A01 T02920093  RH  029%=      5-min Rain = 0
KTAS 112343Z 01004KT 29/09 A3011 RMK A01 T02930092  RH  029%=      5-min Rain = 0
KTAS 112344Z 01003KT 29/09 A3011 RMK A01 T02930091  RH  028%=      5-min Rain = 0
KTAS 112345Z 03003KT 29/09 A301 RMK A01 T02930094  RH  029%=      5-min Rain = 0
KTAS 112346Z 03003KT 29/09 A301 RMK A01 T02930091  RH  028%=      5-min Rain = 0
KTAS 112347Z 03004KT 29/09 A301 RMK A01 T02930090  RH  028%=      5-min Rain = 0
KTAS 112348Z 05003KT 29/09 A301 RMK A01 T02920088  RH  028%=      5-min Rain = 0
KTAS 112349Z 05002KT 29/09 A301 RMK A01 T02910087  RH  028%=      5-min Rain = 0
KTAS 112350Z 04002KT 29/09 A301 RMK A01 T02920091  RH  029%=      5-min Rain = 0
KTAS 112351Z 03003KT 29/09 A301 RMK A01 T02920092  RH  029%=      5-min Rain = 0
KTAS 112352Z 03002KT 29/09 A301 RMK A01 T02920091  RH  029%=      5-min Rain = 0
KTAS 112353Z 03002KT 29/09 A301 RMK A01 T02920090  RH  028%=      5-min Rain = 0
KTAS 112354Z 02002KT 29/09 A301 RMK A01 T02920093  RH  029%=      5-min Rain = 0
KTAS 112355Z 04002KT 29/09 A301 RMK A01 T02910090  RH  028%=      5-min Rain = 0
KTAS 112356Z 03002KT 29/09 A301 RMK A01 T02910092  RH  029%=      5-min Rain = 0
KTAS 112357Z 05003KT 29/09 A301 RMK A01 T02910093  RH  029%=      5-min Rain = 0
KTAS 112358Z 05004KT 29/09 A301 RMK A01 T02910093  RH  029%=      5-min Rain = 0
KTAS 112359Z 04004KT 29/09 A301 RMK A01 T02900091  RH  029%=      5-min Rain = 0
KTAS 120000Z 03003KT 29/09 A301 RMK A01 T02900090  RH  029%=      5-min Rain = 0
KTAS 120001Z 02003KT 29/10 A301 RMK A01 T02890096  RH  030%=      5-min Rain = 0
KTAS 120002Z 01002KT 29/10 A301 RMK A01 T02890098  RH  031%=      5-min Rain = 0
KTAS 120003Z 01001KT 29/10 A301 RMK A01 T02880100  RH  031%=      5-min Rain = 0
KTAS 120004Z 00001KT 29/10 A301 RMK A01 T02880100  RH  031%=      5-min Rain = 0
KTAS 120005Z 35001KT 29/10 A301 RMK A01 T02890102  RH  031%=      5-min Rain = 0
KTAS 120006Z 34001KT 29/10 A301 RMK A01 T02890104  RH  032%=      5-min Rain = 0
KTAS 120007Z 35001KT 29/10 A301 RMK A01 T02900103  RH  031%=      5-min Rain = 0
KTAS 120008Z 35001KT 29/10 A301 RMK A01 T02890102  RH  031%=      5-min Rain = 0
KTAS 120009Z 35001KT 29/10 A301 RMK A01 T02880100  RH  031%=      5-min Rain = 0
KTAS 120010Z 00001KT 29/10 A301 RMK A01 T02880098  RH  031%=      5-min Rain = 0
KTAS 120011Z 00001KT 29/10 A301 RMK A01 T02870099  RH  031%=      5-min Rain = 0
KTAS 120012Z 00001KT 29/10 A301 RMK A01 T02870097  RH  031%=      5-min Rain = 0
KTAS 120013Z 02001KT 29/10 A301 RMK A01 T02870096  RH  030%=      5-min Rain = 0
KTAS 120014Z 02001KT 29/10 A301 RMK A01 T02870101  RH  031%=      5-min Rain = 0
KTAS 120015Z 02001KT 29/10 A301 RMK A01 T02870098  RH  031%=      5-min Rain = 0
KTAS 120016Z 02001KT 29/10 A301 RMK A01 T02870102  RH  032%=      5-min Rain = 0
KTAS 120017Z 01002KT 29/10 A301 RMK A01 T02860103  RH  032%=      5-min Rain = 0
KTAS 120018Z 01001KT 29/10 A301 RMK A01 T02850104  RH  032%=      5-min Rain = 0
KTAS 120019Z 35002KT 28/11 A301 RMK A01 T02840106  RH  033%=      5-min Rain = 0
KTAS 120020Z 15001KT 28/11 A301 RMK A01 T02840108  RH  033%=      5-min Rain = 0
KTAS 120021Z 35001KT 28/11 A301 RMK A01 T02840107  RH  033%=      5-min Rain = 0
KTAS 120022Z 33001KT 28/11 A301 RMK A01 T02840105  RH  033%=      5-min Rain = 0
KTAS 120023Z 02001KT 28/11 A301 RMK A01 T02840106  RH  033%=      5-min Rain = 0
KTAS 120024Z 01001KT 28/11 A301 RMK A01 T02840107  RH  033%=      5-min Rain = 0
KTAS 120025Z 01001KT 28/10 A301 RMK A01 T02840104  RH  033%=      5-min Rain = 0
KTAS 120026Z 35001KT 28/10 A301 RMK A01 T02830102  RH  032%=      5-min Rain = 0
KTAS 120027Z 33002KT 28/11 A301 RMK A01 T02820105  RH  033%=      5-min Rain = 0
KTAS 120028Z 34002KT 28/11 A301 RMK A01 T02800106  RH  034%=      5-min Rain = 0
KTAS 120029Z 34002KT 28/11 A301 RMK A01 T02790107  RH  034%=      5-min Rain = 0
KTAS 120030Z 33002KT 28/11 A301 RMK A01 T02770108  RH  035%=      5-min Rain = 0
KTAS 120031Z 33002KT 28/11 A301 RMK A01 T02760107  RH  035%=      5-min Rain = 0
KTAS 120032Z 34002KT 28/11 A301 RMK A01 T02760108  RH  035%=      5-min Rain = 0
KTAS 120033Z 34002KT 28/11 A301 RMK A01 T02750109  RH  036%=      5-min Rain = 0
KTAS 120034Z 34002KT 27/11 A301 RMK A01 T02730110  RH  036%=      5-min Rain = 0
KTAS 120035Z 33002KT 27/11 A301 RMK A01 T02720109  RH  036%=      5-min Rain = 0
KTAS 120036Z 35001KT 27/11 A301 RMK A01 T02720111  RH  037%=      5-min Rain = 0
KTAS 120037Z 35001KT 27/11 A301 RMK A01 T02710111  RH  037%=      5-min Rain = 0
KTAS 120038Z 34001KT 27/11 A301 RMK A01 T02710108  RH  036%=      5-min Rain = 0
KTAS 120039Z 34001KT 27/11 A301 RMK A01 T02710108  RH  036%=      5-min Rain = 0
KTAS 120040Z 34001KT 27/11 A301 RMK A01 T02700108  RH  036%=      5-min Rain = 0
KTAS 120041Z 34001KT 27/11 A301 RMK A01 T02710109  RH  036%=      5-min Rain = 0
KTAS 120042Z 34001KT 27/11 A301 RMK A01 T02700109  RH  037%=      5-min Rain = 0
KTAS 120043Z 33001KT 27/11 A301 RMK A01 T02690109  RH  037%=      5-min Rain = 0
KTAS 120044Z 32001KT 27/11 A301 RMK A01 T02680107  RH  036%=      5-min Rain = 0
KTAS 120045Z 32001KT 27/11 A301 RMK A01 T02680107  RH  036%=      5-min Rain = 0
KTAS 120046Z 31001KT 27/11 A301 RMK A01 T02670106  RH  036%=      5-min Rain = 0
KTAS 120047Z 30001KT 27/11 A301 RMK A01 T02670106  RH  036%=      5-min Rain = 0
KTAS 120048Z 30001KT 27/11 A301 RMK A01 T02670105  RH  036%=      5-min Rain = 0
KTAS 120049Z 31001KT 27/11 A301 RMK A01 T02660105  RH  037%=      5-min Rain = 0
KTAS 120050Z 31001KT 27/11 A301 RMK A01 T02650105  RH  037%=      5-min Rain = 0
KTAS 120051Z 31001KT 27/11 A301 RMK A01 T02650105  RH  037%=      5-min Rain = 0
KTAS 120052Z 31000KT 27/11 A301 RMK A01 T02650107  RH  037%=      5-min Rain = 0
KTAS 120053Z 00000KT 26/11 A301 RMK A01 T02630109  RH  038%=      5-min Rain = 0
KTAS 120054Z 00000KT 26/11 A301 RMK A01 T02610109  RH  039%=      5-min Rain = 0
KTAS 120055Z 00000KT 26/11 A301 RMK A01 T02580108  RH  039%=      5-min Rain = 0
KTAS 120056Z 00000KT 26/11 A301 RMK A01 T02550108  RH  040%=      5-min Rain = 0
KTAS 120057Z 00000KT 25/11 A301 RMK A01 T02530108  RH  040%=      5-min Rain = 0
KTAS 120058Z 00000KT 25/11 A301 RMK A01 T02520109  RH  041%=      5-min Rain = 0
KTAS 120059Z 00000KT 25/11 A301 RMK A01 T02510108  RH  041%=      5-min Rain = 0
KTAS 120100Z 00000KT 25/11 A301 RMK A01 T02500108  RH  041%=      5-min Rain = 0
KTAS 120101Z 00000KT 25/11 A301 RMK A01 T02480108  RH  041%=      5-min Rain = 0
KTAS 120102Z 00000KT 25/11 A301 RMK A01 T02470108  RH  042%=      5-min Rain = 0
KTAS 120103Z 00000KT 25/11 A301 RMK A01 T02450106  RH  042%=      5-min Rain = 0
KTAS 120104Z 00000KT 25/11 A301 RMK A01 T02450105  RH  041%=      5-min Rain = 0
KTAS 120105Z 00000KT 25/10 A301 RMK A01 T02450104  RH  041%=      5-min Rain = 0
KTAS 120106Z 00000KT 25/10 A301 RMK A01 T02460103  RH  041%=      5-min Rain = 0
KTAS 120107Z 00000KT 25/10 A301 RMK A01 T02460103  RH  041%=      5-min Rain = 0
KTAS 120108Z 00000KT 25/10 A301 RMK A01 T02460104  RH  041%=      5-min Rain = 0
KTAS 120109Z 00000KT 25/10 A301 RMK A01 T02460104  RH  041%=      5-min Rain = 0
KTAS 120110Z 00000KT 25/11 A301 RMK A01 T02470105  RH  041%=      5-min Rain = 0
KTAS 120111Z 00000KT 25/10 A301 RMK A01 T02470104  RH  041%=      5-min Rain = 0
KTAS 120112Z 00000KT 25/10 A301 RMK A01 T02470103  RH  040%=      5-min Rain = 0
KTAS 120113Z 00000KT 25/10 A301 RMK A01 T02470104  RH  040%=      5-min Rain = 0
KTAS 120114Z 00000KT 25/10 A301 RMK A01 T02470104  RH  040%=      5-min Rain = 0
KTAS 120115Z 00000KT 25/10 A301 RMK A01 T02470104  RH  041%=      5-min Rain = 0
KTAS 120116Z 00000KT 25/11 A301 RMK A01 T02460106  RH  041%=      5-min Rain = 0
KTAS 120117Z 00000KT 24/11 A301 RMK A01 T02440106  RH  042%=      5-min Rain = 0
KTAS 120118Z 00000KT 24/11 A301 RMK A01 T02430105  RH  042%=      5-min Rain = 0
KTAS 120119Z 00000KT 24/11 A301 RMK A01 T02420105  RH  042%=      5-min Rain = 0
KTAS 120120Z 00000KT 24/11 A301 RMK A01 T02420105  RH  042%=      5-min Rain = 0
KTAS 120121Z 00000KT 24/11 A301 RMK A01 T02410106  RH  042%=      5-min Rain = 0
KTAS 120122Z 00000KT 24/11 A301 RMK A01 T02410107  RH  043%=      5-min Rain = 0
KTAS 120123Z 00000KT 24/11 A301 RMK A01 T02410106  RH  042%=      5-min Rain = 0
KTAS 120124Z 00000KT 24/11 A301 RMK A01 T02420105  RH  042%=      5-min Rain = 0
KTAS 120125Z 00000KT 24/11 A301 RMK A01 T02420105  RH  042%=      5-min Rain = 0
KTAS 120126Z 00000KT 24/11 A301 RMK A01 T02420105  RH  042%=      5-min Rain = 0
KTAS 120127Z 00000KT 24/11 A301 RMK A01 T02420105  RH  042%=      5-min Rain = 0
KTAS 120128Z 00000KT 24/11 A301 RMK A01 T02420105  RH  042%=      5-min Rain = 0
KTAS 120129Z 00000KT 24/11 A301 RMK A01 T02410105  RH  042%=      5-min Rain = 0
KTAS 120130Z 00000KT 24/11 A301 RMK A01 T02410105  RH  042%=      5-min Rain = 0
KTAS 120131Z 00000KT 24/10 A301 RMK A01 T02390104  RH  043%=      5-min Rain = 0
KTAS 120132Z 00000KT 24/11 A301 RMK A01 T02370105  RH  043%=      5-min Rain = 0
KTAS 120133Z 00000KT 24/10 A301 RMK A01 T02370104  RH  043%=      5-min Rain = 0
KTAS 120134Z 00000KT 24/10 A301 RMK A01 T02370104  RH  043%=      5-min Rain = 0
KTAS 120135Z 00000KT 24/10 A301 RMK A01 T02370104  RH  043%=      5-min Rain = 0
KTAS 120136Z 00000KT 24/10 A301 RMK A01 T02360104  RH  043%=      5-min Rain = 0
KTAS 120137Z 00000KT 24/10 A301 RMK A01 T02350104  RH  044%=      5-min Rain = 0
KTAS 120138Z 00000KT 23/10 A301 RMK A01 T02340104  RH  044%=      5-min Rain = 0
KTAS 120139Z 00000KT 23/10 A301 RMK A01 T02330104  RH  044%=      5-min Rain = 0
KTAS 120140Z 00000KT 23/10 A301 RMK A01 T02310104  RH  044%=      5-min Rain = 0
KTAS 120141Z 00000KT 23/10 A301 RMK A01 T02300103  RH  044%=      5-min Rain = 0
KTAS 120142Z 00000KT 23/10 A301 RMK A01 T02300103  RH  044%=      5-min Rain = 0
KTAS 120143Z 00000KT 23/10 A301 RMK A01 T02310103  RH  044%=      5-min Rain = 0
KTAS 120144Z 00000KT 23/10 A301 RMK A01 T02310104  RH  044%=      5-min Rain = 0
KTAS 120145Z 00000KT 23/10 A301 RMK A01 T02330104  RH  044%=      5-min Rain = 0
KTAS 120146Z 00000KT 24/11 A301 RMK A01 T02350105  RH  044%=      5-min Rain = 0
KTAS 120147Z 00000KT 24/10 A301 RMK A01 T02370104  RH  043%=      5-min Rain = 0
KTAS 120148Z 00000KT 24/10 A301 RMK A01 T02380104  RH  043%=      5-min Rain = 0
KTAS 120149Z 00000KT 24/11 A301 RMK A01 T02390105  RH  043%=      5-min Rain = 0
KTAS 120150Z 00000KT 24/11 A301 RMK A01 T02400105  RH  043%=      5-min Rain = 0
KTAS 120151Z 00000KT 24/11 A301 RMK A01 T02390105  RH  043%=      5-min Rain = 0
KTAS 120152Z 00000KT 24/11 A301 RMK A01 T02390106  RH  043%=      5-min Rain = 0
KTAS 120153Z 00000KT 24/11 A301 RMK A01 T02370106  RH  043%=      5-min Rain = 0
KTAS 120154Z 00000KT 23/11 A301 RMK A01 T02340105  RH  044%=      5-min Rain = 0
KTAS 120155Z 00000KT 23/11 A301 RMK A01 T02300105  RH  045%=      5-min Rain = 0
KTAS 120156Z 00000KT 23/11 A3011 RMK A01 T02290105  RH  046%=      5-min Rain = 0
KTAS 120157Z 00000KT 23/11 A3011 RMK A01 T02270105  RH  046%=      5-min Rain = 0
KTAS 120158Z 00000KT 23/11 A3011 RMK A01 T02250105  RH  047%=      5-min Rain = 0
KTAS 120159Z 00000KT 22/11 A3011 RMK A01 T02240106  RH  047%=      5-min Rain = 0
KTAS 120200Z 00000KT 22/11 A3011 RMK A01 T02240105  RH  047%=      5-min Rain = 0
KTAS 120201Z 00000KT 22/11 A3011 RMK A01 T02240106  RH  047%=      5-min Rain = 0
KTAS 120202Z 00000KT 22/11 A3011 RMK A01 T02240106  RH  047%=      5-min Rain = 0
KTAS 120203Z 00000KT 22/11 A3011 RMK A01 T02230106  RH  048%=      5-min Rain = 0
KTAS 120204Z 00000KT 22/11 A3011 RMK A01 T02220107  RH  048%=      5-min Rain = 0
KTAS 120205Z 00000KT 22/11 A3011 RMK A01 T02210107  RH  048%=      5-min Rain = 0
KTAS 120206Z 00000KT 22/11 A3011 RMK A01 T02200107  RH  049%=      5-min Rain = 0
KTAS 120207Z 00000KT 22/11 A3011 RMK A01 T02190107  RH  049%=      5-min Rain = 0
KTAS 120208Z 00000KT 22/11 A3011 RMK A01 T02190107  RH  049%=      5-min Rain = 0
KTAS 120209Z 00000KT 22/11 A3011 RMK A01 T02190106  RH  049%=      5-min Rain = 0
KTAS 120210Z 00000KT 22/11 A3011 RMK A01 T02190107  RH  049%=      5-min Rain = 0
KTAS 120211Z 00000KT 22/11 A3011 RMK A01 T02190107  RH  049%=      5-min Rain = 0
KTAS 120212Z 00000KT 22/11 A3011 RMK A01 T02180107  RH  049%=      5-min Rain = 0
KTAS 120213Z 00000KT 22/11 A3011 RMK A01 T02180106  RH  049%=      5-min Rain = 0
KTAS 120214Z 00000KT 22/11 A3011 RMK A01 T02180106  RH  049%=      5-min Rain = 0
KTAS 120215Z 00000KT 22/11 A3011 RMK A01 T02170106  RH  049%=      5-min Rain = 0
KTAS 120216Z 00000KT 22/11 A3011 RMK A01 T02160106  RH  049%=      5-min Rain = 0
KTAS 120217Z 00000KT 22/11 A3011 RMK A01 T02160106  RH  050%=      5-min Rain = 0
KTAS 120218Z 00000KT 22/11 A3011 RMK A01 T02150107  RH  050%=      5-min Rain = 0
KTAS 120219Z 00000KT 22/10 A3011 RMK A01 T02150104  RH  049%=      5-min Rain = 0
KTAS 120220Z 00000KT 21/10 A3012 RMK A01 T02120102  RH  049%=      5-min Rain = 0
KTAS 120221Z 00000KT 21/11 A3012 RMK A01 T02100106  RH  051%=      5-min Rain = 0
KTAS 120222Z 00000KT 21/11 A3012 RMK A01 T02090106  RH  052%=      5-min Rain = 0
KTAS 120223Z 00000KT 21/11 A3012 RMK A01 T02080106  RH  052%=      5-min Rain = 0
KTAS 120224Z 00000KT 21/11 A3012 RMK A01 T02080106  RH  052%=      5-min Rain = 0
KTAS 120225Z 00000KT 21/11 A3012 RMK A01 T02090107  RH  052%=      5-min Rain = 0
KTAS 120226Z 00000KT 21/11 A3012 RMK A01 T02100108  RH  052%=      5-min Rain = 0
KTAS 120227Z 00000KT 21/11 A3012 RMK A01 T02110109  RH  052%=      5-min Rain = 0
KTAS 120228Z 00000KT 21/11 A3012 RMK A01 T02120109  RH  052%=      5-min Rain = 0
KTAS 120229Z 00000KT 21/11 A3012 RMK A01 T02130109  RH  051%=      5-min Rain = 0
KTAS 120230Z 00000KT 21/11 A3012 RMK A01 T02140108  RH  051%=      5-min Rain = 0
KTAS 120231Z 00000KT 22/11 A3012 RMK A01 T02150108  RH  051%=      5-min Rain = 0
KTAS 120232Z 00000KT 22/11 A3012 RMK A01 T02150108  RH  051%=      5-min Rain = 0
KTAS 120233Z 00000KT 21/11 A3012 RMK A01 T02140108  RH  051%=      5-min Rain = 0
KTAS 120234Z 00000KT 21/11 A3012 RMK A01 T02130108  RH  051%=      5-min Rain = 0
KTAS 120235Z 00000KT 21/11 A3012 RMK A01 T02120108  RH  051%=      5-min Rain = 0
KTAS 120236Z 00000KT 21/11 A3012 RMK A01 T02110108  RH  052%=      5-min Rain = 0
KTAS 120237Z 00000KT 21/11 A3012 RMK A01 T02100108  RH  052%=      5-min Rain = 0
KTAS 120238Z 00000KT 21/11 A3012 RMK A01 T02090108  RH  052%=      5-min Rain = 0
KTAS 120239Z 02000KT 21/11 A3012 RMK A01 T02090108  RH  052%=      5-min Rain = 0
KTAS 120240Z 31001KT 21/11 A3012 RMK A01 T02070108  RH  053%=      5-min Rain = 0
KTAS 120241Z 31001KT 21/11 A3012 RMK A01 T02060109  RH  054%=      5-min Rain = 0
KTAS 120242Z 31001KT 20/11 A3012 RMK A01 T02040109  RH  054%=      5-min Rain = 0
KTAS 120243Z 31001KT 20/11 A3012 RMK A01 T02030110  RH  055%=      5-min Rain = 0
KTAS 120244Z 31001KT 20/11 A3012 RMK A01 T02010111  RH  056%=      5-min Rain = 0
KTAS 120245Z 31002KT 20/11 A3012 RMK A01 T01990113  RH  057%=      5-min Rain = 0
KTAS 120246Z 31002KT 20/11 A3012 RMK A01 T01970114  RH  059%=      5-min Rain = 0
KTAS 120247Z 30002KT 20/12 A3012 RMK A01 T01960116  RH  060%=      5-min Rain = 0
KTAS 120248Z 30002KT 20/12 A3012 RMK A01 T01950117  RH  060%=      5-min Rain = 0
KTAS 120249Z 30002KT 19/12 A3012 RMK A01 T01940118  RH  061%=      5-min Rain = 0
KTAS 120250Z 30002KT 19/12 A3012 RMK A01 T01940120  RH  062%=      5-min Rain = 0
KTAS 120251Z 30002KT 19/12 A3012 RMK A01 T01940119  RH  062%=      5-min Rain = 0
KTAS 120252Z 30002KT 19/12 A3012 RMK A01 T01930119  RH  062%=      5-min Rain = 0
KTAS 120253Z 30002KT 19/12 A3012 RMK A01 T01930120  RH  063%=      5-min Rain = 0
KTAS 120254Z 30002KT 19/12 A3012 RMK A01 T01940122  RH  063%=      5-min Rain = 0
KTAS 120255Z 30002KT 19/12 A3012 RMK A01 T01940123  RH  063%=      5-min Rain = 0
KTAS 120256Z 30002KT 20/12 A3012 RMK A01 T01950124  RH  064%=      5-min Rain = 0
KTAS 120257Z 30002KT 20/13 A3012 RMK A01 T01960125  RH  064%=      5-min Rain = 0
KTAS 120258Z 30002KT 20/13 A3012 RMK A01 T01960125  RH  063%=      5-min Rain = 0
KTAS 120259Z 30003KT 20/13 A3012 RMK A01 T01960125  RH  064%=      5-min Rain = 0
KTAS 120300Z 30003KT 20/13 A3012 RMK A01 T01950125  RH  064%=      5-min Rain = 0
KTAS 120301Z 30003KT 20/13 A3012 RMK A01 T01950125  RH  064%=      5-min Rain = 0
KTAS 120302Z 30003KT 20/13 A3012 RMK A01 T01950125  RH  064%=      5-min Rain = 0
KTAS 120303Z 30003KT 19/13 A3012 RMK A01 T01940125  RH  064%=      5-min Rain = 0
KTAS 120304Z 29003KT 19/13 A3012 RMK A01 T01940125  RH  064%=      5-min Rain = 0
KTAS 120305Z 29003KT 19/12 A3012 RMK A01 T01930124  RH  064%=      5-min Rain = 0
KTAS 120306Z 29003KT 19/13 A3012 RMK A01 T01930125  RH  064%=      5-min Rain = 0
KTAS 120307Z 29003KT 19/13 A3012 RMK A01 T01940125  RH  064%=      5-min Rain = 0
KTAS 120308Z 29003KT 20/12 A3012 RMK A01 T01950124  RH  064%=      5-min Rain = 0
KTAS 120309Z 30003KT 20/12 A3012 RMK A01 T01950124  RH  063%=      5-min Rain = 0
KTAS 120310Z 30003KT 20/12 A3012 RMK A01 T01950124  RH  063%=      5-min Rain = 0
KTAS 120311Z 30004KT 19/12 A3012 RMK A01 T01940122  RH  063%=      5-min Rain = 0
KTAS 120312Z 30004KT 20/12 A3012 RMK A01 T01950120  RH  062%=      5-min Rain = 0
KTAS 120313Z 30004KT 20/12 A3012 RMK A01 T01950119  RH  062%=      5-min Rain = 0
KTAS 120314Z 30004KT 19/12 A3012 RMK A01 T01940118  RH  061%=      5-min Rain = 0
KTAS 120315Z 30003KT 20/12 A3012 RMK A01 T01950118  RH  061%=      5-min Rain = 0
KTAS 120316Z 30003KT 19/12 A3012 RMK A01 T01940118  RH  061%=      5-min Rain = 0
KTAS 120317Z 30003KT 19/12 A3012 RMK A01 T01940118  RH  061%=      5-min Rain = 0
KTAS 120318Z 30003KT 19/12 A3012 RMK A01 T01940117  RH  061%=      5-min Rain = 0
KTAS 120319Z 30003KT 19/12 A3012 RMK A01 T01940116  RH  061%=      5-min Rain = 0
KTAS 120320Z 30003KT 19/12 A3012 RMK A01 T01940116  RH  061%=      5-min Rain = 0
KTAS 120321Z 31003KT 19/12 A3012 RMK A01 T01940116  RH  061%=      5-min Rain = 0
KTAS 120322Z 30003KT 19/12 A3012 RMK A01 T01940117  RH  061%=      5-min Rain = 0
KTAS 120323Z 30004KT 19/12 A3012 RMK A01 T01940117  RH  061%=      5-min Rain = 0
KTAS 120324Z 30003KT 19/12 A3012 RMK A01 T01930117  RH  061%=      5-min Rain = 0
KTAS 120325Z 30003KT 19/12 A3012 RMK A01 T01930117  RH  061%=      5-min Rain = 0
KTAS 120326Z 30003KT 19/12 A3012 RMK A01 T01930118  RH  062%=      5-min Rain = 0
KTAS 120327Z 30003KT 19/12 A3012 RMK A01 T01930119  RH  062%=      5-min Rain = 0
KTAS 120328Z 30003KT 19/12 A3012 RMK A01 T01930120  RH  063%=      5-min Rain = 0
KTAS 120329Z 31003KT 19/12 A3012 RMK A01 T01920121  RH  063%=      5-min Rain = 0
KTAS 120330Z 31003KT 19/12 A3012 RMK A01 T01910122  RH  064%=      5-min Rain = 0
KTAS 120331Z 31003KT 19/12 A3012 RMK A01 T01910123  RH  065%=      5-min Rain = 0
KTAS 120332Z 31003KT 19/13 A3012 RMK A01 T01910125  RH  065%=      5-min Rain = 0
KTAS 120333Z 31003KT 19/13 A3012 RMK A01 T01910126  RH  066%=      5-min Rain = 0
KTAS 120334Z 32003KT 19/13 A3012 RMK A01 T01910127  RH  066%=      5-min Rain = 0
KTAS 120335Z 33002KT 19/13 A3012 RMK A01 T01900127  RH  067%=      5-min Rain = 0
KTAS 120336Z 34002KT 19/13 A3012 RMK A01 T01900126  RH  066%=      5-min Rain = 0
KTAS 120337Z 34002KT 19/12 A3012 RMK A01 T01890124  RH  066%=      5-min Rain = 0
KTAS 120338Z 36002KT 19/12 A3012 RMK A01 T01880124  RH  066%=      5-min Rain = 0
KTAS 120339Z 05004G9KT 19/12 A3013 RMK A01 T01870123  RH  066%=      5-min Rain = 0
KTAS 120340Z 06007KT 18/12 A3013 RMK A01 T01830121  RH  067%=      5-min Rain = 0
KTAS 120341Z 05004KT 18/12 A3013 RMK A01 T01820123  RH  068%=      5-min Rain = 0
KTAS 120342Z 06004KT 19/12 A3013 RMK A01 T01850123  RH  068%=      5-min Rain = 0
KTAS 120343Z 07004KT 19/12 A3013 RMK A01 T01880122  RH  065%=      5-min Rain = 0
KTAS 120344Z 08003KT 19/12 A3013 RMK A01 T01900121  RH  064%=      5-min Rain = 0
KTAS 120345Z 08003KT 19/12 A3013 RMK A01 T01900121  RH  064%=      5-min Rain = 0
KTAS 120346Z 09003KT 19/12 A3013 RMK A01 T01890120  RH  064%=      5-min Rain = 0
KTAS 120347Z 09003KT 19/12 A3013 RMK A01 T01890119  RH  064%=      5-min Rain = 0
KTAS 120348Z 09002KT 19/12 A3013 RMK A01 T01880119  RH  064%=      5-min Rain = 0
KTAS 120349Z 08002KT 19/12 A3013 RMK A01 T01890119  RH  064%=      5-min Rain = 0
KTAS 120350Z 08002KT 19/12 A3013 RMK A01 T01890118  RH  063%=      5-min Rain = 0
KTAS 120351Z 07002KT 19/12 A3013 RMK A01 T01910117  RH  062%=      5-min Rain = 0
KTAS 120352Z 08002KT 19/12 A3013 RMK A01 T01930116  RH  061%=      5-min Rain = 0
KTAS 120353Z 08002KT 20/12 A3013 RMK A01 T01950116  RH  060%=      5-min Rain = 0
KTAS 120354Z 07002KT 20/12 A3013 RMK A01 T01960116  RH  060%=      5-min Rain = 0
KTAS 120355Z 07003KT 20/12 A3013 RMK A01 T01960116  RH  060%=      5-min Rain = 0
KTAS 120356Z 06003KT 20/12 A3013 RMK A01 T01960115  RH  059%=      5-min Rain = 0
KTAS 120357Z 07004KT 20/11 A3013 RMK A01 T01970114  RH  059%=      5-min Rain = 0
KTAS 120358Z 07004KT 20/11 A3013 RMK A01 T01980114  RH  058%=      5-min Rain = 0
KTAS 120359Z 06004KT 20/11 A3013 RMK A01 T01980114  RH  058%=      5-min Rain = 0
KTAS 120400Z 06004KT 20/11 A3013 RMK A01 T01980114  RH  058%=      5-min Rain = 0
KTAS 120401Z 06004KT 20/11 A3013 RMK A01 T01980114  RH  058%=      5-min Rain = 0
KTAS 120402Z 06004KT 20/11 A3013 RMK A01 T01980114  RH  058%=      5-min Rain = 0
KTAS 120403Z 06004KT 20/12 A3013 RMK A01 T01980115  RH  059%=      5-min Rain = 0
KTAS 120404Z 06005KT 20/11 A3013 RMK A01 T01980114  RH  058%=      5-min Rain = 0
KTAS 120405Z 06005KT 20/11 A3013 RMK A01 T01970113  RH  058%=      5-min Rain = 0
KTAS 120406Z 06005KT 20/11 A3013 RMK A01 T01960113  RH  059%=      5-min Rain = 0
KTAS 120407Z 05005KT 20/11 A3013 RMK A01 T01950112  RH  059%=      5-min Rain = 0
KTAS 120408Z 05005KT 19/11 A3013 RMK A01 T01930112  RH  059%=      5-min Rain = 0
KTAS 120409Z 05006KT 19/11 A3013 RMK A01 T01900112  RH  060%=      5-min Rain = 0
KTAS 120410Z 05006KT 19/11 A3013 RMK A01 T01860110  RH  061%=      5-min Rain = 0
KTAS 120411Z 05006KT 18/11 A3013 RMK A01 T01830111  RH  063%=      5-min Rain = 0
KTAS 120412Z 06006KT 18/11 A3013 RMK A01 T01830111  RH  063%=      5-min Rain = 0
KTAS 120413Z 06006KT 19/11 A3013 RMK A01 T01850111  RH  062%=      5-min Rain = 0
KTAS 120414Z 06006KT 19/11 A3013 RMK A01 T01860111  RH  061%=      5-min Rain = 0
KTAS 120415Z 06006KT 19/11 A3013 RMK A01 T01880110  RH  061%=      5-min Rain = 0
KTAS 120416Z 06006KT 19/11 A3013 RMK A01 T01890110  RH  060%=      5-min Rain = 0
KTAS 120417Z 06006KT 19/11 A3013 RMK A01 T01910110  RH  059%=      5-min Rain = 0
KTAS 120418Z 06005KT 19/11 A3013 RMK A01 T01920110  RH  059%=      5-min Rain = 0
KTAS 120419Z 06006KT 19/11 A3013 RMK A01 T01920110  RH  059%=      5-min Rain = 0
KTAS 120420Z 06006KT 19/11 A3013 RMK A01 T01920109  RH  059%=      5-min Rain = 0
KTAS 120421Z 06007KT 19/11 A3013 RMK A01 T01930109  RH  058%=      5-min Rain = 0
KTAS 120422Z 06007KT 19/11 A3013 RMK A01 T01940108  RH  058%=      5-min Rain = 0
KTAS 120423Z 06006KT 20/11 A3013 RMK A01 T01950108  RH  057%=      5-min Rain = 0
KTAS 120424Z 06006KT 20/11 A3013 RMK A01 T01950108  RH  057%=      5-min Rain = 0
KTAS 120425Z 06005KT 20/11 A3013 RMK A01 T01950109  RH  057%=      5-min Rain = 0
KTAS 120426Z 06006KT 19/11 A3013 RMK A01 T01940109  RH  058%=      5-min Rain = 0
KTAS 120427Z 06005KT 19/11 A3013 RMK A01 T01930109  RH  058%=      5-min Rain = 0
KTAS 120428Z 06005KT 19/11 A3013 RMK A01 T01920108  RH  058%=      5-min Rain = 0
KTAS 120429Z 06006KT 19/11 A3013 RMK A01 T01920108  RH  058%=      5-min Rain = 0
KTAS 120430Z 06006KT 19/11 A3013 RMK A01 T01920108  RH  058%=      5-min Rain = 0
KTAS 120431Z 06006KT 19/11 A3013 RMK A01 T01910108  RH  058%=      5-min Rain = 0
KTAS 120432Z 07006KT 19/11 A3013 RMK A01 T01920108  RH  058%=      5-min Rain = 0
KTAS 120433Z 07006KT 19/11 A3013 RMK A01 T01920108  RH  058%=      5-min Rain = 0
KTAS 120434Z 07006KT 19/11 A3013 RMK A01 T01920108  RH  058%=      5-min Rain = 0
KTAS 120435Z 07005KT 19/11 A3013 RMK A01 T01920107  RH  058%=      5-min Rain = 0
KTAS 120436Z 08006KT 19/11 A3013 RMK A01 T01920107  RH  058%=      5-min Rain = 0
KTAS 120437Z 07005KT 19/11 A3013 RMK A01 T01920107  RH  058%=      5-min Rain = 0
KTAS 120438Z 07005KT 19/11 A3013 RMK A01 T01920107  RH  058%=      5-min Rain = 0
KTAS 120439Z 07005KT 19/11 A3013 RMK A01 T01920107  RH  058%=      5-min Rain = 0
KTAS 120440Z 07005KT 19/11 A3013 RMK A01 T01930107  RH  057%=      5-min Rain = 0
KTAS 120441Z 07005KT 19/11 A3013 RMK A01 T01920106  RH  057%=      5-min Rain = 0
KTAS 120442Z 07005KT 19/11 A3013 RMK A01 T01920106  RH  057%=      5-min Rain = 0
KTAS 120443Z 07006KT 19/11 A3013 RMK A01 T01920106  RH  057%=      5-min Rain = 0
KTAS 120444Z 07006KT 19/11 A3013 RMK A01 T01910106  RH  058%=      5-min Rain = 0
KTAS 120445Z 08006KT 19/11 A3013 RMK A01 T01910105  RH  057%=      5-min Rain = 0
KTAS 120446Z 07006KT 19/11 A3013 RMK A01 T01920105  RH  057%=      5-min Rain = 0
KTAS 120447Z 07005KT 19/11 A3013 RMK A01 T01930105  RH  057%=      5-min Rain = 0
KTAS 120448Z 07005KT 19/11 A3013 RMK A01 T01930105  RH  057%=      5-min Rain = 0
KTAS 120449Z 07005KT 19/11 A3013 RMK A01 T01930105  RH  057%=      5-min Rain = 0
KTAS 120450Z 07005KT 19/11 A3013 RMK A01 T01930105  RH  057%=      5-min Rain = 0
KTAS 120451Z 07004KT 19/11 A3013 RMK A01 T01930105  RH  057%=      5-min Rain = 0
KTAS 120452Z 07005KT 19/11 A3013 RMK A01 T01930105  RH  057%=      5-min Rain = 0
KTAS 120453Z 07004KT 19/11 A3013 RMK A01 T01920105  RH  057%=      5-min Rain = 0
KTAS 120454Z 07004KT 19/10 A3013 RMK A01 T01920104  RH  057%=      5-min Rain = 0
KTAS 120455Z 07004KT 19/10 A3013 RMK A01 T01910104  RH  057%=      5-min Rain = 0
KTAS 120456Z 07004KT 19/10 A3013 RMK A01 T01910104  RH  057%=      5-min Rain = 0
KTAS 120457Z 08004KT 19/10 A3013 RMK A01 T01900104  RH  057%=      5-min Rain = 0
KTAS 120458Z 08004KT 19/10 A3013 RMK A01 T01890104  RH  058%=      5-min Rain = 0
KTAS 120459Z 08004KT 19/11 A3013 RMK A01 T01890105  RH  058%=      5-min Rain = 0

Page generated in 0.2553 seconds.